Observation data for Junction on 08/14/2019      Previous  Date  Next       Current Mesonet Observations  Soil Data  Daily Summary Page  Observations in Plain Language
KJU1 140500Z 15005KT 31/17 A2998 RMK A01 T03120167  RH  042%=      5-min Rain = 0
KJU1 140501Z 15006KT 31/17 A2998 RMK A01 T03120168  RH  042%=      5-min Rain = 0
KJU1 140502Z 15005KT 31/17 A2998 RMK A01 T03130168  RH  042%=      5-min Rain = 0
KJU1 140503Z 15005KT 31/17 A2998 RMK A01 T03120167  RH  042%=      5-min Rain = 0
KJU1 140504Z 15006KT 31/17 A2998 RMK A01 T03120167  RH  042%=      5-min Rain = 0
KJU1 140505Z 15005KT 31/17 A2998 RMK A01 T03120167  RH  042%=      5-min Rain = 0
KJU1 140506Z 15005KT 31/17 A2998 RMK A01 T03120168  RH  042%=      5-min Rain = 0
KJU1 140507Z 15006KT 31/17 A2998 RMK A01 T03110168  RH  042%=      5-min Rain = 0
KJU1 140508Z 14006KT 31/17 A2998 RMK A01 T03110168  RH  042%=      5-min Rain = 0
KJU1 140509Z 15006KT 31/17 A2998 RMK A01 T03110168  RH  042%=      5-min Rain = 0
KJU1 140510Z 14006KT 31/17 A2998 RMK A01 T03110168  RH  042%=      5-min Rain = 0
KJU1 140527Z 15009KT 31/18 A2997 RMK A01 T03120177  RH  044%=      5-min Rain = 0
KJU1 140528Z 14008KT 31/18 A2997 RMK A01 T03120177  RH  045%=      5-min Rain = 0
KJU1 140529Z 14007KT 31/18 A2998 RMK A01 T03110178  RH  045%=      5-min Rain = 0
KJU1 140530Z 14008KT 31/18 A2998 RMK A01 T03110178  RH  045%=      5-min Rain = 0
KJU1 140531Z 15008KT 31/18 A2998 RMK A01 T03100179  RH  045%=      5-min Rain = 0
KJU1 140532Z 15009KT 31/18 A2998 RMK A01 T03100179  RH  046%=      5-min Rain = 0
KJU1 140533Z 15008KT 31/18 A2998 RMK A01 T03100179  RH  046%=      5-min Rain = 0
KJU1 140534Z 15011KT 31/18 A2998 RMK A01 T03100180  RH  046%=      5-min Rain = 0
KJU1 140535Z 14009KT 31/18 A2998 RMK A01 T03110181  RH  046%=      5-min Rain = 0
KJU1 140536Z 15007KT 31/18 A2998 RMK A01 T03100181  RH  046%=      5-min Rain = 0
KJU1 140537Z 15009G16KT 31/18 A2998 RMK A01 T03100182  RH  046%=      5-min Rain = 0
KJU1 140538Z 15013KT 31/18 A2998 RMK A01 T03100184  RH  047%=      5-min Rain = 0
KJU1 140539Z 15009KT 31/18 A2998 RMK A01 T03100184  RH  047%=      5-min Rain = 0
KJU1 140540Z 15007KT 31/18 A2998 RMK A01 T03100184  RH  047%=      5-min Rain = 0
KJU1 140541Z 15008KT 31/18 A2998 RMK A01 T03100184  RH  047%=      5-min Rain = 0
KJU1 140542Z 15007G12KT 31/18 A2998 RMK A01 T03090184  RH  047%=      5-min Rain = 0
KJU1 140543Z 15010KT 31/19 A2998 RMK A01 T03090185  RH  048%=      5-min Rain = 0
KJU1 140544Z 14010KT 31/19 A2998 RMK A01 T03090187  RH  048%=      5-min Rain = 0
KJU1 140545Z 14008KT 31/19 A2998 RMK A01 T03090187  RH  048%=      5-min Rain = 0
KJU1 140546Z 16009KT 31/19 A2998 RMK A01 T03090187  RH  048%=      5-min Rain = 0
KJU1 140547Z 14010KT 31/19 A2998 RMK A01 T03080188  RH  049%=      5-min Rain = 0
KJU1 140548Z 15012KT 31/19 A2998 RMK A01 T03080189  RH  049%=      5-min Rain = 0
KJU1 140549Z 15011KT 31/19 A2998 RMK A01 T03080189  RH  049%=      5-min Rain = 0
KJU1 140550Z 16011KT 31/19 A2998 RMK A01 T03080189  RH  049%=      5-min Rain = 0
KJU1 140551Z 15009KT 31/19 A2998 RMK A01 T03080189  RH  049%=      5-min Rain = 0
KJU1 140552Z 16010KT 31/19 A2998 RMK A01 T03080190  RH  049%=      5-min Rain = 0
KJU1 140553Z 15008KT 31/19 A2998 RMK A01 T03080190  RH  049%=      5-min Rain = 0
KJU1 140554Z 15011KT 31/19 A2998 RMK A01 T03070190  RH  050%=      5-min Rain = 0
KJU1 140555Z 15010KT 31/19 A2998 RMK A01 T03070191  RH  050%=      5-min Rain = 0
KJU1 140556Z 15008KT 31/19 A2998 RMK A01 T03070191  RH  050%=      5-min Rain = 0
KJU1 140557Z 16008KT 31/19 A2999 RMK A01 T03070191  RH  050%=      5-min Rain = 0
KJU1 140558Z 15007KT 31/19 A2999 RMK A01 T03060192  RH  050%=      5-min Rain = 0
KJU1 140559Z 15008KT 31/19 A2999 RMK A01 T03060192  RH  051%=      5-min Rain = 0
KJU1 140600Z 15010KT 31/19 A2999 RMK A01 T03060192  RH  051%=      5-min Rain = 0
KJU1 140601Z 15008KT 31/19 A2999 RMK A01 T03050192  RH  051%=      5-min Rain = 0
KJU1 140602Z 15008KT 31/19 A2999 RMK A01 T03060193  RH  051%=      5-min Rain = 0
KJU1 140603Z 16008KT 31/19 A2999 RMK A01 T03050193  RH  051%=      5-min Rain = 0
KJU1 140604Z 15008KT 31/19 A2999 RMK A01 T03050194  RH  051%=      5-min Rain = 0
KJU1 140605Z 15008KT 31/19 A2999 RMK A01 T03050194  RH  052%=      5-min Rain = 0
KJU1 140606Z 15009KT 30/19 A2999 RMK A01 T03040194  RH  052%=      5-min Rain = 0
KJU1 140607Z 15010KT 31/20 A2999 RMK A01 T03050195  RH  052%=      5-min Rain = 0
KJU1 140608Z 15011KT 31/20 A2999 RMK A01 T03050195  RH  052%=      5-min Rain = 0
KJU1 140609Z 15012KT 31/20 A2999 RMK A01 T03050196  RH  052%=      5-min Rain = 0
KJU1 140610Z 16010KT 30/20 A2999 RMK A01 T03040196  RH  052%=      5-min Rain = 0
KJU1 140611Z 15010KT 31/20 A2999 RMK A01 T03050196  RH  052%=      5-min Rain = 0
KJU1 140612Z 16009KT 30/20 A2999 RMK A01 T03040196  RH  052%=      5-min Rain = 0
KJU1 140613Z 15009KT 30/20 A2999 RMK A01 T03040196  RH  053%=      5-min Rain = 0
KJU1 140614Z 16010KT 30/20 A2998 RMK A01 T03040197  RH  053%=      5-min Rain = 0
KJU1 140615Z 16010KT 30/20 A2998 RMK A01 T03040197  RH  053%=      5-min Rain = 0
KJU1 140616Z 16010KT 30/20 A2998 RMK A01 T03040198  RH  053%=      5-min Rain = 0
KJU1 140617Z 16009G15KT 30/20 A2999 RMK A01 T03030197  RH  053%=      5-min Rain = 0
KJU1 140618Z 17011KT 30/20 A2998 RMK A01 T03030197  RH  053%=      5-min Rain = 0
KJU1 140619Z 16013KT 30/20 A2998 RMK A01 T03030198  RH  053%=      5-min Rain = 0
KJU1 140620Z 16011KT 30/20 A2999 RMK A01 T03030198  RH  053%=      5-min Rain = 0
KJU1 140621Z 16010KT 30/20 A2999 RMK A01 T03030198  RH  053%=      5-min Rain = 0
KJU1 140622Z 17009KT 30/20 A2999 RMK A01 T03030198  RH  053%=      5-min Rain = 0
KJU1 140623Z 16007KT 30/20 A2999 RMK A01 T03030198  RH  053%=      5-min Rain = 0
KJU1 140624Z 16011KT 30/20 A2999 RMK A01 T03020198  RH  054%=      5-min Rain = 0
KJU1 140625Z 16010KT 30/20 A2999 RMK A01 T03020198  RH  054%=      5-min Rain = 0
KJU1 140626Z 17008KT 30/20 A2999 RMK A01 T03020198  RH  054%=      5-min Rain = 0
KJU1 140627Z 17008KT 30/20 A2999 RMK A01 T03020198  RH  054%=      5-min Rain = 0
KJU1 140628Z 17010KT 30/20 A2999 RMK A01 T03020198  RH  054%=      5-min Rain = 0
KJU1 140629Z 17010KT 30/20 A2999 RMK A01 T03010198  RH  054%=      5-min Rain = 0
KJU1 140630Z 16009KT 30/20 A2999 RMK A01 T03010199  RH  054%=      5-min Rain = 0
KJU1 140631Z 18007KT 30/20 A2999 RMK A01 T03010199  RH  054%=      5-min Rain = 0
KJU1 140632Z 17009KT 30/20 A2999 RMK A01 T03010199  RH  054%=      5-min Rain = 0
KJU1 140633Z 17007KT 30/20 A2999 RMK A01 T03010199  RH  054%=      5-min Rain = 0
KJU1 140634Z 17006KT 30/20 A2999 RMK A01 T03010199  RH  054%=      5-min Rain = 0
KJU1 140635Z 18009KT 30/20 A2999 RMK A01 T03000199  RH  055%=      5-min Rain = 0
KJU1 140636Z 17009KT 30/20 A2999 RMK A01 T03000199  RH  055%=      5-min Rain = 0
KJU1 140637Z 18008KT 30/20 A2999 RMK A01 T03000200  RH  055%=      5-min Rain = 0
KJU1 140638Z 18009KT 30/20 A2999 RMK A01 T03000200  RH  055%=      5-min Rain = 0
KJU1 140639Z 18009KT 30/20 A2999 RMK A01 T03000200  RH  055%=      5-min Rain = 0
KJU1 140640Z 17008KT 30/20 A2999 RMK A01 T02990200  RH  055%=      5-min Rain = 0
KJU1 140641Z 19006KT 30/20 A2999 RMK A01 T03000200  RH  055%=      5-min Rain = 0
KJU1 140642Z 19009KT 30/20 A2999 RMK A01 T02990200  RH  055%=      5-min Rain = 0
KJU1 140643Z 18007KT 30/20 A2999 RMK A01 T02990200  RH  055%=      5-min Rain = 0
KJU1 140644Z 20007KT 30/20 A2999 RMK A01 T02990200  RH  055%=      5-min Rain = 0
KJU1 140645Z 17006KT 30/20 A2999 RMK A01 T02980200  RH  056%=      5-min Rain = 0
KJU1 140646Z 19007KT 30/20 A2999 RMK A01 T02980200  RH  056%=      5-min Rain = 0
KJU1 140647Z 20006KT 30/20 A2999 RMK A01 T02980200  RH  056%=      5-min Rain = 0
KJU1 140648Z 19007KT 30/20 A2999 RMK A01 T02980201  RH  056%=      5-min Rain = 0
KJU1 140649Z 20009KT 30/20 A2999 RMK A01 T02970200  RH  056%=      5-min Rain = 0
KJU1 140650Z 19011KT 30/20 A2999 RMK A01 T02970201  RH  056%=      5-min Rain = 0
KJU1 140651Z 20007KT 30/20 A2999 RMK A01 T02980201  RH  056%=      5-min Rain = 0
KJU1 140652Z 19007KT 30/20 A2999 RMK A01 T02980201  RH  056%=      5-min Rain = 0
KJU1 140653Z 21004KT 30/20 A2999 RMK A01 T02980201  RH  056%=      5-min Rain = 0
KJU1 140654Z 19008KT 30/20 A2999 RMK A01 T02970201  RH  056%=      5-min Rain = 0
KJU1 140655Z 20008KT 30/20 A2999 RMK A01 T02970201  RH  056%=      5-min Rain = 0
KJU1 140656Z 19007KT 30/20 A2999 RMK A01 T02970201  RH  057%=      5-min Rain = 0
KJU1 140657Z 20008KT 30/20 A2999 RMK A01 T02970202  RH  057%=      5-min Rain = 0
KJU1 140658Z 22005KT 30/20 A2999 RMK A01 T02970202  RH  057%=      5-min Rain = 0
KJU1 140659Z 21006KT 30/20 A2999 RMK A01 T02970201  RH  057%=      5-min Rain = 0
KJU1 140700Z 21005KT 30/20 A2999 RMK A01 T02960201  RH  057%=      5-min Rain = 0
KJU1 140701Z 21003KT 30/20 A2999 RMK A01 T02960201  RH  057%=      5-min Rain = 0
KJU1 140702Z 21006KT 30/20 A2999 RMK A01 T02960201  RH  057%=      5-min Rain = 0
KJU1 140703Z 22004KT 30/20 A2999 RMK A01 T02960202  RH  057%=      5-min Rain = 0
KJU1 140704Z 20004KT 30/20 A2999 RMK A01 T02960201  RH  057%=      5-min Rain = 0
KJU1 140705Z 19007KT 30/20 A2999 RMK A01 T02950201  RH  057%=      5-min Rain = 0
KJU1 140706Z 18005KT 30/20 A2999 RMK A01 T02950202  RH  057%=      5-min Rain = 0
KJU1 140707Z 20006KT 30/20 A2999 RMK A01 T02960202  RH  057%=      5-min Rain = 0
KJU1 140708Z 19006KT 30/20 A2999 RMK A01 T02950202  RH  057%=      5-min Rain = 0
KJU1 140709Z 21005KT 30/20 A2999 RMK A01 T02960202  RH  057%=      5-min Rain = 0
KJU1 140710Z 20005KT 30/20 A2999 RMK A01 T02950202  RH  057%=      5-min Rain = 0
KJU1 140711Z 20006KT 30/20 A2999 RMK A01 T02950202  RH  057%=      5-min Rain = 0
KJU1 140712Z 21005KT 30/20 A2999 RMK A01 T02950202  RH  057%=      5-min Rain = 0
KJU1 140713Z 19006KT 30/20 A2999 RMK A01 T02950202  RH  057%=      5-min Rain = 0
KJU1 140714Z 19009KT 30/20 A30 RMK A01 T02950202  RH  057%=      5-min Rain = 0
KJU1 140715Z 20005KT 30/20 A30 RMK A01 T02950202  RH  057%=      5-min Rain = 0
KJU1 140716Z 22004KT 30/20 A30 RMK A01 T02950202  RH  057%=      5-min Rain = 0
KJU1 140717Z 22005KT 30/20 A30 RMK A01 T02950202  RH  057%=      5-min Rain = 0
KJU1 140718Z 21004KT 30/20 A30 RMK A01 T02950202  RH  057%=      5-min Rain = 0
KJU1 140719Z 21004KT 30/20 A30 RMK A01 T02950202  RH  057%=      5-min Rain = 0
KJU1 140720Z 20005KT 30/20 A30 RMK A01 T02950202  RH  058%=      5-min Rain = 0
KJU1 140721Z 19005KT 29/20 A30 RMK A01 T02940202  RH  058%=      5-min Rain = 0
KJU1 140722Z 18006KT 29/20 A30 RMK A01 T02940202  RH  058%=      5-min Rain = 0
KJU1 140723Z 20004KT 29/20 A2999 RMK A01 T02940202  RH  058%=      5-min Rain = 0
KJU1 140724Z 22004KT 29/20 A30 RMK A01 T02940203  RH  058%=      5-min Rain = 0
KJU1 140725Z 19006KT 29/20 A30 RMK A01 T02940203  RH  058%=      5-min Rain = 0
KJU1 140726Z 19006KT 29/20 A30 RMK A01 T02940203  RH  058%=      5-min Rain = 0
KJU1 140727Z 21006KT 29/20 A30 RMK A01 T02940203  RH  058%=      5-min Rain = 0
KJU1 140728Z 20006KT 29/20 A30 RMK A01 T02940203  RH  058%=      5-min Rain = 0
KJU1 140729Z 20005KT 29/20 A30 RMK A01 T02940203  RH  058%=      5-min Rain = 0
KJU1 140730Z 19007KT 29/20 A30 RMK A01 T02940203  RH  058%=      5-min Rain = 0
KJU1 140731Z 18007KT 29/20 A30 RMK A01 T02940203  RH  058%=      5-min Rain = 0
KJU1 140732Z 20006KT 29/20 A30 RMK A01 T02940203  RH  058%=      5-min Rain = 0
KJU1 140733Z 20005KT 29/20 A30 RMK A01 T02940203  RH  058%=      5-min Rain = 0
KJU1 140734Z 19005KT 29/20 A30 RMK A01 T02940203  RH  058%=      5-min Rain = 0
KJU1 140735Z 19005KT 29/20 A30 RMK A01 T02940203  RH  058%=      5-min Rain = 0
KJU1 140736Z 19008KT 29/20 A30 RMK A01 T02940203  RH  058%=      5-min Rain = 0
KJU1 140737Z 19006KT 29/20 A30 RMK A01 T02940203  RH  058%=      5-min Rain = 0
KJU1 140738Z 18006KT 29/20 A30 RMK A01 T02940203  RH  058%=      5-min Rain = 0
KJU1 140739Z 18006KT 29/20 A30 RMK A01 T02940203  RH  058%=      5-min Rain = 0
KJU1 140740Z 18006KT 29/20 A30 RMK A01 T02940203  RH  058%=      5-min Rain = 0
KJU1 140741Z 18006KT 29/20 A30 RMK A01 T02940203  RH  058%=      5-min Rain = 0
KJU1 140742Z 19005KT 29/20 A30 RMK A01 T02940203  RH  058%=      5-min Rain = 0
KJU1 140743Z 18005KT 29/20 A30 RMK A01 T02940203  RH  058%=      5-min Rain = 0
KJU1 140744Z 19005KT 29/20 A30 RMK A01 T02930203  RH  058%=      5-min Rain = 0
KJU1 140745Z 19004KT 29/20 A30 RMK A01 T02930203  RH  058%=      5-min Rain = 0
KJU1 140746Z 19004KT 29/20 A30 RMK A01 T02930203  RH  059%=      5-min Rain = 0
KJU1 140747Z 19007KT 29/20 A30 RMK A01 T02920203  RH  059%=      5-min Rain = 0
KJU1 140748Z 19006KT 29/20 A30 RMK A01 T02920203  RH  059%=      5-min Rain = 0
KJU1 140749Z 20005KT 29/20 A30 RMK A01 T02920203  RH  058%=      5-min Rain = 0
KJU1 140750Z 19006KT 29/20 A30 RMK A01 T02920202  RH  058%=      5-min Rain = 0
KJU1 140751Z 19005KT 29/20 A30 RMK A01 T02920203  RH  059%=      5-min Rain = 0
KJU1 140752Z 19006KT 29/20 A30 RMK A01 T02920203  RH  059%=      5-min Rain = 0
KJU1 140753Z 19006KT 29/20 A30 RMK A01 T02930203  RH  059%=      5-min Rain = 0
KJU1 140754Z 19005KT 29/20 A30 RMK A01 T02920203  RH  059%=      5-min Rain = 0
KJU1 140755Z 19004KT 29/20 A30 RMK A01 T02920203  RH  059%=      5-min Rain = 0
KJU1 140756Z 19003KT 29/20 A30 RMK A01 T02910203  RH  059%=      5-min Rain = 0
KJU1 140757Z 19004KT 29/20 A30 RMK A01 T02910203  RH  059%=      5-min Rain = 0
KJU1 140758Z 18004KT 29/20 A30 RMK A01 T02910203  RH  059%=      5-min Rain = 0
KJU1 140759Z 19004KT 29/20 A30 RMK A01 T02900203  RH  059%=      5-min Rain = 0
KJU1 140800Z 19003KT 29/20 A30 RMK A01 T02900203  RH  059%=      5-min Rain = 0
KJU1 140801Z 19006KT 29/20 A30 RMK A01 T02900203  RH  059%=      5-min Rain = 0
KJU1 140802Z 20009KT 29/20 A30 RMK A01 T02900203  RH  059%=      5-min Rain = 0
KJU1 140803Z 19007KT 29/20 A30 RMK A01 T02900202  RH  059%=      5-min Rain = 0
KJU1 140804Z 18008KT 29/20 A30 RMK A01 T02900202  RH  059%=      5-min Rain = 0
KJU1 140805Z 19007KT 29/20 A30 RMK A01 T02900202  RH  059%=      5-min Rain = 0
KJU1 140806Z 19007KT 29/20 A30 RMK A01 T02900202  RH  059%=      5-min Rain = 0
KJU1 140807Z 19007KT 29/20 A30 RMK A01 T02900202  RH  059%=      5-min Rain = 0
KJU1 140808Z 19008KT 29/20 A30 RMK A01 T02900202  RH  059%=      5-min Rain = 0
KJU1 140809Z 19007KT 29/20 A30 RMK A01 T02900202  RH  059%=      5-min Rain = 0
KJU1 140810Z 19005KT 29/20 A30 RMK A01 T02900202  RH  059%=      5-min Rain = 0
KJU1 140811Z 18003KT 29/20 A30 RMK A01 T02900201  RH  059%=      5-min Rain = 0
KJU1 140812Z 18005KT 29/20 A30 RMK A01 T02900202  RH  059%=      5-min Rain = 0
KJU1 140813Z 18004KT 29/20 A30 RMK A01 T02890201  RH  059%=      5-min Rain = 0
KJU1 140814Z 18004KT 29/20 A30 RMK A01 T02890201  RH  059%=      5-min Rain = 0
KJU1 140815Z 19003KT 29/20 A30 RMK A01 T02880201  RH  059%=      5-min Rain = 0
KJU1 140816Z 19003KT 29/20 A30 RMK A01 T02870201  RH  060%=      5-min Rain = 0
KJU1 140817Z 20003KT 29/20 A30 RMK A01 T02870201  RH  060%=      5-min Rain = 0
KJU1 140818Z 20004KT 29/20 A30 RMK A01 T02860201  RH  060%=      5-min Rain = 0
KJU1 140819Z 18007KT 29/20 A30 RMK A01 T02860201  RH  060%=      5-min Rain = 0
KJU1 140820Z 20007G12KT 29/20 A30 RMK A01 T02860200  RH  060%=      5-min Rain = 0
KJU1 140821Z 19009KT 29/20 A30 RMK A01 T02860198  RH  059%=      5-min Rain = 0
KJU1 140822Z 18008KT 29/20 A30 RMK A01 T02860198  RH  059%=      5-min Rain = 0
KJU1 140823Z 19007KT 29/20 A30 RMK A01 T02870197  RH  058%=      5-min Rain = 0
KJU1 140824Z 20006KT 29/20 A30 RMK A01 T02870197  RH  058%=      5-min Rain = 0
KJU1 140825Z 20007KT 29/20 A30 RMK A01 T02870197  RH  058%=      5-min Rain = 0
KJU1 140826Z 18008KT 29/20 A30 RMK A01 T02870196  RH  058%=      5-min Rain = 0
KJU1 140827Z 18007KT 29/20 A30 RMK A01 T02870195  RH  058%=      5-min Rain = 0
KJU1 140828Z 18005KT 29/20 A30 RMK A01 T02870195  RH  058%=      5-min Rain = 0
KJU1 140829Z 19006KT 29/20 A30 RMK A01 T02870195  RH  058%=      5-min Rain = 0
KJU1 140830Z 19006KT 29/20 A30 RMK A01 T02860195  RH  058%=      5-min Rain = 0
KJU1 140831Z 20007KT 29/19 A30 RMK A01 T02860194  RH  057%=      5-min Rain = 0
KJU1 140832Z 18006KT 29/19 A30 RMK A01 T02850193  RH  057%=      5-min Rain = 0
KJU1 140833Z 19007KT 29/19 A30 RMK A01 T02850192  RH  057%=      5-min Rain = 0
KJU1 140834Z 19005KT 29/19 A30 RMK A01 T02850192  RH  057%=      5-min Rain = 0
KJU1 140835Z 19007KT 29/19 A30 RMK A01 T02850191  RH  057%=      5-min Rain = 0
KJU1 140836Z 20008KT 28/19 A30 RMK A01 T02840189  RH  056%=      5-min Rain = 0
KJU1 140837Z 18007KT 29/19 A30 RMK A01 T02850189  RH  056%=      5-min Rain = 0
KJU1 140838Z 19007KT 28/19 A30 RMK A01 T02840188  RH  056%=      5-min Rain = 0
KJU1 140839Z 18008KT 29/19 A30 RMK A01 T02850188  RH  056%=      5-min Rain = 0
KJU1 140840Z 20006KT 28/19 A30 RMK A01 T02840188  RH  056%=      5-min Rain = 0
KJU1 140841Z 20007KT 28/19 A30 RMK A01 T02840188  RH  056%=      5-min Rain = 0
KJU1 140842Z 19009KT 28/19 A30 RMK A01 T02840187  RH  056%=      5-min Rain = 0
KJU1 140843Z 19007KT 28/19 A30 RMK A01 T02840186  RH  055%=      5-min Rain = 0
KJU1 140844Z 19005KT 28/19 A30 RMK A01 T02840186  RH  055%=      5-min Rain = 0
KJU1 140845Z 19006KT 28/19 A30 RMK A01 T02830186  RH  056%=      5-min Rain = 0
KJU1 140846Z 19007KT 28/19 A30 RMK A01 T02830186  RH  056%=      5-min Rain = 0
KJU1 140847Z 19006KT 28/19 A30 RMK A01 T02830186  RH  056%=      5-min Rain = 0
KJU1 140848Z 20006KT 28/19 A30 RMK A01 T02820186  RH  056%=      5-min Rain = 0
KJU1 140849Z 20006KT 28/19 A30 RMK A01 T02820186  RH  056%=      5-min Rain = 0
KJU1 140850Z 19006KT 28/19 A30 RMK A01 T02820185  RH  056%=      5-min Rain = 0
KJU1 140851Z 20005KT 28/19 A30 RMK A01 T02820186  RH  056%=      5-min Rain = 0
KJU1 140852Z 19007KT 28/19 A30 RMK A01 T02810185  RH  056%=      5-min Rain = 0
KJU1 140853Z 20007KT 28/19 A30 RMK A01 T02810185  RH  056%=      5-min Rain = 0
KJU1 140854Z 20005KT 28/18 A30 RMK A01 T02810184  RH  056%=      5-min Rain = 0
KJU1 140855Z 19004KT 28/18 A30 RMK A01 T02810184  RH  056%=      5-min Rain = 0
KJU1 140856Z 19004KT 28/19 A30 RMK A01 T02800185  RH  056%=      5-min Rain = 0
KJU1 140857Z 20003KT 28/18 A30 RMK A01 T02800184  RH  056%=      5-min Rain = 0
KJU1 140858Z 19004KT 28/18 A30 RMK A01 T02790184  RH  056%=      5-min Rain = 0
KJU1 140859Z 20004KT 28/18 A30 RMK A01 T02790184  RH  056%=      5-min Rain = 0
KJU1 140900Z 20004KT 28/18 A30 RMK A01 T02780184  RH  057%=      5-min Rain = 0
KJU1 140901Z 20004KT 28/18 A30 RMK A01 T02780184  RH  057%=      5-min Rain = 0
KJU1 140902Z 20004KT 28/18 A30 RMK A01 T02770184  RH  057%=      5-min Rain = 0
KJU1 140903Z 20004KT 28/18 A30 RMK A01 T02770184  RH  057%=      5-min Rain = 0
KJU1 140904Z 21004KT 28/18 A30 RMK A01 T02770184  RH  057%=      5-min Rain = 0
KJU1 140905Z 21004KT 28/18 A30 RMK A01 T02770184  RH  057%=      5-min Rain = 0
KJU1 140906Z 20006KT 28/18 A30 RMK A01 T02770184  RH  057%=      5-min Rain = 0
KJU1 140907Z 20006KT 28/18 A30 RMK A01 T02770184  RH  057%=      5-min Rain = 0
KJU1 140908Z 19004KT 28/18 A30 RMK A01 T02770184  RH  057%=      5-min Rain = 0
KJU1 140909Z 20004KT 28/18 A30 RMK A01 T02770184  RH  057%=      5-min Rain = 0
KJU1 140910Z 20004KT 28/18 A30 RMK A01 T02770184  RH  057%=      5-min Rain = 0
KJU1 140911Z 20005KT 28/18 A30 RMK A01 T02760184  RH  057%=      5-min Rain = 0
KJU1 140912Z 19005KT 28/18 A30 RMK A01 T02760184  RH  057%=      5-min Rain = 0
KJU1 140913Z 19004KT 28/18 A30 RMK A01 T02760184  RH  057%=      5-min Rain = 0
KJU1 140914Z 19004KT 28/18 A30 RMK A01 T02750184  RH  057%=      5-min Rain = 0
KJU1 140915Z 19004KT 28/18 A30 RMK A01 T02750184  RH  057%=      5-min Rain = 0
KJU1 140916Z 19004KT 28/18 A30 RMK A01 T02750184  RH  058%=      5-min Rain = 0
KJU1 140917Z 18004KT 27/18 A30 RMK A01 T02740183  RH  058%=      5-min Rain = 0
KJU1 140918Z 19004KT 27/18 A30 RMK A01 T02730183  RH  058%=      5-min Rain = 0
KJU1 140919Z 18003KT 27/18 A30 RMK A01 T02730183  RH  058%=      5-min Rain = 0
KJU1 140920Z 17003KT 27/18 A30 RMK A01 T02720183  RH  058%=      5-min Rain = 0
KJU1 140921Z 18004KT 27/18 A30 RMK A01 T02710183  RH  059%=      5-min Rain = 0
KJU1 140922Z 19003KT 27/18 A30 RMK A01 T02710183  RH  059%=      5-min Rain = 0
KJU1 140923Z 19003KT 27/18 A30 RMK A01 T02710183  RH  059%=      5-min Rain = 0
KJU1 140924Z 19003KT 27/18 A30 RMK A01 T02700184  RH  059%=      5-min Rain = 0
KJU1 140925Z 19002KT 27/18 A30 RMK A01 T02700184  RH  059%=      5-min Rain = 0
KJU1 140926Z 19002KT 27/18 A30 RMK A01 T02700183  RH  059%=      5-min Rain = 0
KJU1 140927Z 21001KT 27/18 A30 RMK A01 T02690184  RH  059%=      5-min Rain = 0
KJU1 140928Z 21002KT 27/18 A30 RMK A01 T02690184  RH  060%=      5-min Rain = 0
KJU1 140929Z 21002KT 27/18 A30 RMK A01 T02690184  RH  060%=      5-min Rain = 0
KJU1 140930Z 21002KT 27/18 A30 RMK A01 T02690184  RH  060%=      5-min Rain = 0
KJU1 140931Z 21002KT 27/18 A30 RMK A01 T02680184  RH  060%=      5-min Rain = 0
KJU1 140932Z 21002KT 27/18 A30 RMK A01 T02680184  RH  060%=      5-min Rain = 0
KJU1 140933Z 22001KT 27/18 A30 RMK A01 T02680184  RH  060%=      5-min Rain = 0
KJU1 140934Z 22002KT 27/18 A30 RMK A01 T02680184  RH  060%=      5-min Rain = 0
KJU1 140935Z 20003KT 27/19 A30 RMK A01 T02680185  RH  060%=      5-min Rain = 0
KJU1 140936Z 20002KT 27/19 A30 RMK A01 T02680185  RH  060%=      5-min Rain = 0
KJU1 140937Z 19001KT 27/18 A30 RMK A01 T02680184  RH  060%=      5-min Rain = 0
KJU1 140938Z 18002KT 27/18 A30 RMK A01 T02670184  RH  060%=      5-min Rain = 0
KJU1 140939Z 17002KT 27/18 A30 RMK A01 T02660184  RH  060%=      5-min Rain = 0
KJU1 140940Z 18002KT 27/18 A30 RMK A01 T02660184  RH  061%=      5-min Rain = 0
KJU1 140941Z 17002KT 27/18 A30 RMK A01 T02650184  RH  061%=      5-min Rain = 0
KJU1 140942Z 17002KT 27/18 A30 RMK A01 T02650184  RH  061%=      5-min Rain = 0
KJU1 140943Z 17002KT 27/19 A30 RMK A01 T02650185  RH  061%=      5-min Rain = 0
KJU1 140944Z 17003KT 27/18 A30 RMK A01 T02650184  RH  061%=      5-min Rain = 0
KJU1 140945Z 17003KT 26/18 A30 RMK A01 T02640184  RH  061%=      5-min Rain = 0
KJU1 140946Z 17003KT 26/18 A30 RMK A01 T02630183  RH  061%=      5-min Rain = 0
KJU1 140947Z 17002KT 26/18 A30 RMK A01 T02610182  RH  062%=      5-min Rain = 0
KJU1 140948Z 17002KT 26/18 A30 RMK A01 T02590182  RH  062%=      5-min Rain = 0
KJU1 140949Z 18002KT 26/18 A30 RMK A01 T02580182  RH  063%=      5-min Rain = 0
KJU1 140950Z 18002KT 26/18 A30 RMK A01 T02570182  RH  063%=      5-min Rain = 0
KJU1 140951Z 17002KT 26/18 A30 RMK A01 T02560183  RH  064%=      5-min Rain = 0
KJU1 140952Z 17002KT 26/18 A30 RMK A01 T02560183  RH  064%=      5-min Rain = 0
KJU1 140953Z 16002KT 26/18 A30 RMK A01 T02560184  RH  064%=      5-min Rain = 0
KJU1 140954Z 16002KT 26/18 A30 RMK A01 T02550184  RH  065%=      5-min Rain = 0
KJU1 140955Z 15002KT 26/18 A30 RMK A01 T02560184  RH  065%=      5-min Rain = 0
KJU1 140956Z 16002KT 26/18 A30 RMK A01 T02550184  RH  065%=      5-min Rain = 0
KJU1 140957Z 16003KT 26/19 A30 RMK A01 T02550185  RH  065%=      5-min Rain = 0
KJU1 140958Z 16003KT 26/19 A30 RMK A01 T02560185  RH  065%=      5-min Rain = 0
KJU1 140959Z 17003KT 26/19 A30 RMK A01 T02560185  RH  065%=      5-min Rain = 0
KJU1 141000Z 17003KT 26/18 A30 RMK A01 T02560184  RH  064%=      5-min Rain = 0
KJU1 141001Z 17003KT 26/19 A30 RMK A01 T02560185  RH  065%=      5-min Rain = 0
KJU1 141002Z 17002KT 26/19 A30 RMK A01 T02560185  RH  065%=      5-min Rain = 0
KJU1 141003Z 17002KT 26/19 A30 RMK A01 T02560185  RH  065%=      5-min Rain = 0
KJU1 141004Z 17002KT 26/19 A30 RMK A01 T02560185  RH  065%=      5-min Rain = 0
KJU1 141005Z 17002KT 26/18 A30 RMK A01 T02550184  RH  065%=      5-min Rain = 0
KJU1 141006Z 17002KT 26/18 A30 RMK A01 T02550184  RH  065%=      5-min Rain = 0
KJU1 141007Z 17001KT 26/18 A30 RMK A01 T02550184  RH  065%=      5-min Rain = 0
KJU1 141008Z 17001KT 25/18 A30 RMK A01 T02540184  RH  065%=      5-min Rain = 0
KJU1 141009Z 17001KT 25/19 A30 RMK A01 T02540185  RH  065%=      5-min Rain = 0
KJU1 141010Z 17001KT 25/18 A30 RMK A01 T02540184  RH  065%=      5-min Rain = 0
KJU1 141011Z 17000KT 25/19 A30 RMK A01 T02540185  RH  066%=      5-min Rain = 0
KJU1 141012Z 00000KT 25/19 A30 RMK A01 T02540186  RH  066%=      5-min Rain = 0
KJU1 141013Z 00000KT 25/19 A30 RMK A01 T02540186  RH  066%=      5-min Rain = 0
KJU1 141014Z 00000KT 25/19 A30 RMK A01 T02530186  RH  066%=      5-min Rain = 0
KJU1 141015Z 00000KT 25/19 A30 RMK A01 T02540185  RH  066%=      5-min Rain = 0
KJU1 141016Z 00000KT 25/19 A30 RMK A01 T02540185  RH  066%=      5-min Rain = 0
KJU1 141017Z 00000KT 25/19 A30 RMK A01 T02540185  RH  066%=      5-min Rain = 0
KJU1 141018Z 00000KT 25/19 A30 RMK A01 T02530185  RH  066%=      5-min Rain = 0
KJU1 141019Z 00000KT 25/19 A30 RMK A01 T02530185  RH  066%=      5-min Rain = 0
KJU1 141020Z 00000KT 25/19 A30 RMK A01 T02520185  RH  066%=      5-min Rain = 0
KJU1 141021Z 00000KT 25/18 A30 RMK A01 T02510184  RH  066%=      5-min Rain = 0
KJU1 141022Z 00000KT 25/19 A30 RMK A01 T02510185  RH  067%=      5-min Rain = 0
KJU1 141023Z 00000KT 25/19 A30 RMK A01 T02500185  RH  067%=      5-min Rain = 0
KJU1 141024Z 00000KT 25/18 A30 RMK A01 T02500184  RH  067%=      5-min Rain = 0
KJU1 141025Z 00000KT 25/18 A30 RMK A01 T02490183  RH  067%=      5-min Rain = 0
KJU1 141026Z 00000KT 25/18 A30 RMK A01 T02480182  RH  067%=      5-min Rain = 0
KJU1 141027Z 00000KT 25/18 A30 RMK A01 T02480182  RH  067%=      5-min Rain = 0
KJU1 141028Z 00000KT 25/18 A30 RMK A01 T02470183  RH  068%=      5-min Rain = 0
KJU1 141029Z 16000KT 25/18 A30 RMK A01 T02460183  RH  068%=      5-min Rain = 0
KJU1 141030Z 16001KT 25/18 A30 RMK A01 T02450183  RH  068%=      5-min Rain = 0
KJU1 141031Z 17002KT 24/18 A30 RMK A01 T02440183  RH  069%=      5-min Rain = 0
KJU1 141032Z 18001KT 24/18 A30 RMK A01 T02430182  RH  069%=      5-min Rain = 0
KJU1 141033Z 18002KT 24/18 A30 RMK A01 T02430182  RH  069%=      5-min Rain = 0
KJU1 141034Z 18002KT 24/18 A30 RMK A01 T02430184  RH  070%=      5-min Rain = 0
KJU1 141035Z 18002KT 24/19 A30 RMK A01 T02430185  RH  070%=      5-min Rain = 0
KJU1 141036Z 17002KT 24/19 A30 RMK A01 T02430185  RH  070%=      5-min Rain = 0
KJU1 141037Z 17002KT 24/19 A30 RMK A01 T02430186  RH  070%=      5-min Rain = 0
KJU1 141038Z 18001KT 24/19 A30 RMK A01 T02430185  RH  070%=      5-min Rain = 0
KJU1 141039Z 18001KT 24/19 A30 RMK A01 T02430185  RH  070%=      5-min Rain = 0
KJU1 141040Z 19001KT 24/19 A30 RMK A01 T02430185  RH  070%=      5-min Rain = 0
KJU1 141041Z 21001KT 24/19 A30 RMK A01 T02420186  RH  071%=      5-min Rain = 0
KJU1 141042Z 24001KT 24/19 A30 RMK A01 T02430187  RH  071%=      5-min Rain = 0
KJU1 141043Z 27001KT 24/19 A30 RMK A01 T02430187  RH  071%=      5-min Rain = 0
KJU1 141044Z 29002KT 24/19 A30 RMK A01 T02430187  RH  071%=      5-min Rain = 0
KJU1 141045Z 30002KT 24/19 A30 RMK A01 T02430188  RH  071%=      5-min Rain = 0
KJU1 141046Z 30002KT 24/19 A30 RMK A01 T02440188  RH  071%=      5-min Rain = 0
KJU1 141047Z 31002KT 24/19 A3001 RMK A01 T02440189  RH  071%=      5-min Rain = 0
KJU1 141048Z 33001KT 25/19 A3001 RMK A01 T02450190  RH  072%=      5-min Rain = 0
KJU1 141049Z 33001KT 25/19 A3001 RMK A01 T02460190  RH  071%=      5-min Rain = 0
KJU1 141050Z 33001KT 25/19 A3001 RMK A01 T02460192  RH  072%=      5-min Rain = 0
KJU1 141051Z 33001KT 25/19 A3001 RMK A01 T02460192  RH  072%=      5-min Rain = 0
KJU1 141052Z 33001KT 25/19 A3001 RMK A01 T02460193  RH  072%=      5-min Rain = 0
KJU1 141053Z 33001KT 25/19 A3001 RMK A01 T02460193  RH  072%=      5-min Rain = 0
KJU1 141054Z 33001KT 25/19 A3001 RMK A01 T02470191  RH  071%=      5-min Rain = 0
KJU1 141055Z 32001KT 25/19 A3001 RMK A01 T02460189  RH  070%=      5-min Rain = 0
KJU1 141056Z 31001KT 25/19 A3001 RMK A01 T02460189  RH  071%=      5-min Rain = 0
KJU1 141057Z 32002KT 25/19 A3001 RMK A01 T02450191  RH  072%=      5-min Rain = 0
KJU1 141058Z 31002KT 25/19 A3001 RMK A01 T02450191  RH  072%=      5-min Rain = 0
KJU1 141059Z 32001KT 25/19 A3001 RMK A01 T02450190  RH  071%=      5-min Rain = 0
KJU1 141100Z 32001KT 24/19 A3001 RMK A01 T02440187  RH  070%=      5-min Rain = 0
KJU1 141101Z 32000KT 24/18 A3001 RMK A01 T02430183  RH  069%=      5-min Rain = 0
KJU1 141102Z 00000KT 24/18 A3001 RMK A01 T02420184  RH  070%=      5-min Rain = 0
KJU1 141103Z 00000KT 24/19 A3001 RMK A01 T02410186  RH  071%=      5-min Rain = 0
KJU1 141104Z 09000KT 24/19 A3001 RMK A01 T02420187  RH  072%=      5-min Rain = 0
KJU1 141105Z 09001KT 24/19 A3001 RMK A01 T02430187  RH  071%=      5-min Rain = 0
KJU1 141106Z 10001KT 24/19 A3001 RMK A01 T02430185  RH  070%=      5-min Rain = 0
KJU1 141107Z 10001KT 24/18 A3001 RMK A01 T02420184  RH  070%=      5-min Rain = 0
KJU1 141108Z 11002KT 24/19 A3001 RMK A01 T02410185  RH  071%=      5-min Rain = 0
KJU1 141109Z 12002KT 24/19 A3001 RMK A01 T02410186  RH  071%=      5-min Rain = 0
KJU1 141110Z 12002KT 24/19 A3001 RMK A01 T02410186  RH  071%=      5-min Rain = 0
KJU1 141111Z 11002KT 24/19 A3001 RMK A01 T02410187  RH  072%=      5-min Rain = 0
KJU1 141112Z 11002KT 24/19 A3001 RMK A01 T02410187  RH  072%=      5-min Rain = 0
KJU1 141113Z 11002KT 24/19 A3001 RMK A01 T02420187  RH  072%=      5-min Rain = 0
KJU1 141114Z 12002KT 24/19 A3001 RMK A01 T02420187  RH  071%=      5-min Rain = 0
KJU1 141115Z 12002KT 24/19 A3001 RMK A01 T02420187  RH  071%=      5-min Rain = 0
KJU1 141116Z 13002KT 24/19 A3001 RMK A01 T02420187  RH  071%=      5-min Rain = 0
KJU1 141117Z 14001KT 24/19 A3001 RMK A01 T02420187  RH  071%=      5-min Rain = 0
KJU1 141118Z 14001KT 24/19 A3001 RMK A01 T02420188  RH  072%=      5-min Rain = 0
KJU1 141119Z 15001KT 24/19 A3001 RMK A01 T02420188  RH  072%=      5-min Rain = 0
KJU1 141120Z 15001KT 24/19 A3001 RMK A01 T02430189  RH  072%=      5-min Rain = 0
KJU1 141121Z 14002KT 24/19 A3001 RMK A01 T02430188  RH  071%=      5-min Rain = 0
KJU1 141122Z 14002KT 24/19 A3001 RMK A01 T02430188  RH  071%=      5-min Rain = 0
KJU1 141123Z 17002KT 24/19 A3001 RMK A01 T02420186  RH  071%=      5-min Rain = 0
KJU1 141124Z 17002KT 24/19 A3001 RMK A01 T02400185  RH  071%=      5-min Rain = 0
KJU1 141125Z 16002KT 24/19 A3001 RMK A01 T02400187  RH  072%=      5-min Rain = 0
KJU1 141126Z 16002KT 24/19 A3001 RMK A01 T02390188  RH  073%=      5-min Rain = 0
KJU1 141127Z 15001KT 24/19 A3001 RMK A01 T02390187  RH  073%=      5-min Rain = 0
KJU1 141128Z 15001KT 24/19 A3002 RMK A01 T02390186  RH  073%=      5-min Rain = 0
KJU1 141129Z 00000KT 24/19 A3002 RMK A01 T02380186  RH  072%=      5-min Rain = 0
KJU1 141130Z 30001KT 24/19 A3002 RMK A01 T02380186  RH  073%=      5-min Rain = 0
KJU1 141131Z 31002KT 24/19 A3002 RMK A01 T02380187  RH  073%=      5-min Rain = 0
KJU1 141132Z 31002KT 24/19 A3002 RMK A01 T02380189  RH  074%=      5-min Rain = 0
KJU1 141133Z 31002KT 24/19 A3002 RMK A01 T02400189  RH  073%=      5-min Rain = 0
KJU1 141134Z 31002KT 24/19 A3002 RMK A01 T02410190  RH  073%=      5-min Rain = 0
KJU1 141135Z 31002KT 24/19 A3002 RMK A01 T02410190  RH  073%=      5-min Rain = 0
KJU1 141136Z 31002KT 24/19 A3003 RMK A01 T02420190  RH  073%=      5-min Rain = 0
KJU1 141137Z 32002KT 24/19 A3003 RMK A01 T02420190  RH  073%=      5-min Rain = 0
KJU1 141138Z 32001KT 24/19 A3003 RMK A01 T02420191  RH  073%=      5-min Rain = 0
KJU1 141139Z 33000KT 24/19 A3003 RMK A01 T02410190  RH  073%=      5-min Rain = 0
KJU1 141140Z 00000KT 24/19 A3003 RMK A01 T02410187  RH  072%=      5-min Rain = 0
KJU1 141141Z 06000KT 24/19 A3003 RMK A01 T02390185  RH  072%=      5-min Rain = 0
KJU1 141142Z 05001KT 24/19 A3003 RMK A01 T02380188  RH  074%=      5-min Rain = 0
KJU1 141143Z 03001KT 24/19 A3003 RMK A01 T02370186  RH  073%=      5-min Rain = 0
KJU1 141144Z 03001KT 24/18 A3003 RMK A01 T02360184  RH  073%=      5-min Rain = 0
KJU1 141145Z 03000KT 24/18 A3003 RMK A01 T02350184  RH  073%=      5-min Rain = 0
KJU1 141146Z 00000KT 24/18 A3003 RMK A01 T02350183  RH  073%=      5-min Rain = 0
KJU1 141147Z 00000KT 23/18 A3003 RMK A01 T02340183  RH  073%=      5-min Rain = 0
KJU1 141148Z 00000KT 23/19 A3003 RMK A01 T02330185  RH  074%=      5-min Rain = 0
KJU1 141149Z 00000KT 23/19 A3003 RMK A01 T02330185  RH  074%=      5-min Rain = 0
KJU1 141150Z 00000KT 23/18 A3003 RMK A01 T02330183  RH  073%=      5-min Rain = 0
KJU1 141151Z 00000KT 23/18 A3003 RMK A01 T02320182  RH  074%=      5-min Rain = 0
KJU1 141152Z 00000KT 23/18 A3003 RMK A01 T02310182  RH  074%=      5-min Rain = 0
KJU1 141153Z 00000KT 23/18 A3003 RMK A01 T02300181  RH  074%=      5-min Rain = 0
KJU1 141154Z 00000KT 23/18 A3003 RMK A01 T02290181  RH  074%=      5-min Rain = 0
KJU1 141155Z 00000KT 23/18 A3003 RMK A01 T02290181  RH  075%=      5-min Rain = 0
KJU1 141156Z 00000KT 23/18 A3003 RMK A01 T02280181  RH  075%=      5-min Rain = 0
KJU1 141157Z 00000KT 23/18 A3003 RMK A01 T02280182  RH  075%=      5-min Rain = 0
KJU1 141158Z 12000KT 23/18 A3003 RMK A01 T02280182  RH  076%=      5-min Rain = 0
KJU1 141159Z 12001KT 23/18 A3003 RMK A01 T02270183  RH  076%=      5-min Rain = 0
KJU1 141200Z 12000KT 23/19 A3004 RMK A01 T02280185  RH  077%=      5-min Rain = 0
KJU1 141201Z 00000KT 23/19 A3004 RMK A01 T02290187  RH  077%=      5-min Rain = 0
KJU1 141202Z 00000KT 23/19 A3004 RMK A01 T02300187  RH  077%=      5-min Rain = 0
KJU1 141203Z 00000KT 23/19 A3004 RMK A01 T02300185  RH  076%=      5-min Rain = 0
KJU1 141204Z 00000KT 23/19 A3004 RMK A01 T02300186  RH  076%=      5-min Rain = 0
KJU1 141205Z 00000KT 23/19 A3004 RMK A01 T02310187  RH  076%=      5-min Rain = 0
KJU1 141206Z 00000KT 23/19 A3004 RMK A01 T02310187  RH  076%=      5-min Rain = 0
KJU1 141207Z 00000KT 23/19 A3004 RMK A01 T02310187  RH  076%=      5-min Rain = 0
KJU1 141208Z 17000KT 23/19 A3004 RMK A01 T02310187  RH  076%=      5-min Rain = 0
KJU1 141209Z 15001KT 23/19 A3004 RMK A01 T02300186  RH  076%=      5-min Rain = 0
KJU1 141210Z 15001KT 23/19 A3004 RMK A01 T02300185  RH  076%=      5-min Rain = 0
KJU1 141211Z 15001KT 23/19 A3004 RMK A01 T02290185  RH  076%=      5-min Rain = 0
KJU1 141212Z 15001KT 23/18 A3004 RMK A01 T02290184  RH  076%=      5-min Rain = 0
KJU1 141213Z 15001KT 23/19 A3004 RMK A01 T02290185  RH  076%=      5-min Rain = 0
KJU1 141214Z 15001KT 23/19 A3004 RMK A01 T02290186  RH  077%=      5-min Rain = 0
KJU1 141215Z 16000KT 23/19 A3004 RMK A01 T02290185  RH  076%=      5-min Rain = 0
KJU1 141216Z 16000KT 23/19 A3004 RMK A01 T02290186  RH  077%=      5-min Rain = 0
KJU1 141217Z 16001KT 23/19 A3004 RMK A01 T02290188  RH  077%=      5-min Rain = 0
KJU1 141218Z 16001KT 23/19 A3004 RMK A01 T02290188  RH  077%=      5-min Rain = 0
KJU1 141219Z 15001KT 23/19 A3004 RMK A01 T02290187  RH  077%=      5-min Rain = 0
KJU1 141220Z 15002KT 23/19 A3004 RMK A01 T02290186  RH  077%=      5-min Rain = 0
KJU1 141221Z 15002KT 23/19 A3004 RMK A01 T02290185  RH  077%=      5-min Rain = 0
KJU1 141222Z 15003KT 23/19 A3004 RMK A01 T02280186  RH  077%=      5-min Rain = 0
KJU1 141223Z 15003KT 23/19 A3004 RMK A01 T02280185  RH  077%=      5-min Rain = 0
KJU1 141224Z 16003KT 23/19 A3004 RMK A01 T02290186  RH  077%=      5-min Rain = 0
KJU1 141225Z 16003KT 23/19 A3004 RMK A01 T02280186  RH  077%=      5-min Rain = 0
KJU1 141226Z 16002KT 23/19 A3004 RMK A01 T02290187  RH  077%=      5-min Rain = 0
KJU1 141227Z 16002KT 23/19 A3004 RMK A01 T02290187  RH  077%=      5-min Rain = 0
KJU1 141228Z 17002KT 23/19 A3004 RMK A01 T02300189  RH  078%=      5-min Rain = 0
KJU1 141229Z 17002KT 23/19 A3004 RMK A01 T02300189  RH  078%=      5-min Rain = 0
KJU1 141230Z 18002KT 23/19 A3004 RMK A01 T02310190  RH  078%=      5-min Rain = 0
KJU1 141231Z 18002KT 23/19 A3004 RMK A01 T02310190  RH  078%=      5-min Rain = 0
KJU1 141232Z 19002KT 23/19 A3004 RMK A01 T02310190  RH  078%=      5-min Rain = 0
KJU1 141233Z 20002KT 23/19 A3004 RMK A01 T02320191  RH  078%=      5-min Rain = 0
KJU1 141234Z 21001KT 23/19 A3004 RMK A01 T02330192  RH  078%=      5-min Rain = 0
KJU1 141235Z 23001KT 23/19 A3004 RMK A01 T02330192  RH  078%=      5-min Rain = 0
KJU1 141236Z 24002KT 23/19 A3004 RMK A01 T02330192  RH  078%=      5-min Rain = 0
KJU1 141237Z 25002KT 23/19 A3004 RMK A01 T02340193  RH  078%=      5-min Rain = 0
KJU1 141238Z 26001KT 24/19 A3004 RMK A01 T02350193  RH  078%=      5-min Rain = 0
KJU1 141239Z 27001KT 24/19 A3004 RMK A01 T02350192  RH  077%=      5-min Rain = 0
KJU1 141240Z 29001KT 24/19 A3004 RMK A01 T02350192  RH  077%=      5-min Rain = 0
KJU1 141241Z 30000KT 24/19 A3004 RMK A01 T02350192  RH  077%=      5-min Rain = 0
KJU1 141242Z 00000KT 24/19 A3004 RMK A01 T02360192  RH  076%=      5-min Rain = 0
KJU1 141243Z 00000KT 24/19 A3004 RMK A01 T02360193  RH  077%=      5-min Rain = 0
KJU1 141244Z 00000KT 24/19 A3004 RMK A01 T02370193  RH  076%=      5-min Rain = 0
KJU1 141245Z 00000KT 24/19 A3004 RMK A01 T02380193  RH  076%=      5-min Rain = 0
KJU1 141246Z 00000KT 24/19 A3004 RMK A01 T02380193  RH  076%=      5-min Rain = 0
KJU1 141247Z 00000KT 24/19 A3004 RMK A01 T02390194  RH  076%=      5-min Rain = 0
KJU1 141248Z 00000KT 24/19 A3004 RMK A01 T02390194  RH  076%=      5-min Rain = 0
KJU1 141249Z 00000KT 24/19 A3004 RMK A01 T02390194  RH  076%=      5-min Rain = 0
KJU1 141250Z 00000KT 24/19 A3004 RMK A01 T02400194  RH  076%=      5-min Rain = 0
KJU1 141251Z 32000KT 24/20 A3004 RMK A01 T02400196  RH  076%=      5-min Rain = 0
KJU1 141252Z 33001KT 24/20 A3004 RMK A01 T02410196  RH  076%=      5-min Rain = 0
KJU1 141253Z 33001KT 24/20 A3004 RMK A01 T02410195  RH  076%=      5-min Rain = 0
KJU1 141254Z 34001KT 24/19 A3005 RMK A01 T02420194  RH  074%=      5-min Rain = 0
KJU1 141255Z 35001KT 24/19 A3005 RMK A01 T02430193  RH  074%=      5-min Rain = 0
KJU1 141256Z 36001KT 24/19 A3005 RMK A01 T02440193  RH  073%=      5-min Rain = 0
KJU1 141257Z 02001KT 25/19 A3005 RMK A01 T02450194  RH  073%=      5-min Rain = 0
KJU1 141258Z 02001KT 25/20 A3005 RMK A01 T02460196  RH  074%=      5-min Rain = 0
KJU1 141259Z 02001KT 25/20 A3005 RMK A01 T02470198  RH  074%=      5-min Rain = 0
KJU1 141300Z 03000KT 25/20 A3004 RMK A01 T02490198  RH  074%=      5-min Rain = 0
KJU1 141301Z 03000KT 25/20 A3004 RMK A01 T02500199  RH  073%=      5-min Rain = 0
KJU1 141302Z 00000KT 25/20 A3004 RMK A01 T02510199  RH  073%=      5-min Rain = 0
KJU1 141303Z 00000KT 25/20 A3005 RMK A01 T02520199  RH  073%=      5-min Rain = 0
KJU1 141304Z 31001KT 25/20 A3005 RMK A01 T02520199  RH  073%=      5-min Rain = 0
KJU1 141305Z 31002KT 25/20 A3005 RMK A01 T02520200  RH  073%=      5-min Rain = 0
KJU1 141306Z 31002KT 25/20 A3005 RMK A01 T02520200  RH  073%=      5-min Rain = 0
KJU1 141307Z 30001KT 25/20 A3005 RMK A01 T02520200  RH  073%=      5-min Rain = 0
KJU1 141308Z 30001KT 25/20 A3005 RMK A01 T02520201  RH  073%=      5-min Rain = 0
KJU1 141309Z 29001KT 25/20 A3005 RMK A01 T02530200  RH  073%=      5-min Rain = 0
KJU1 141310Z 28001KT 25/20 A3005 RMK A01 T02530200  RH  072%=      5-min Rain = 0
KJU1 141311Z 27001KT 25/20 A3005 RMK A01 T02530200  RH  072%=      5-min Rain = 0
KJU1 141312Z 25001KT 25/20 A3005 RMK A01 T02540200  RH  072%=      5-min Rain = 0
KJU1 141313Z 24000KT 26/20 A3004 RMK A01 T02550201  RH  072%=      5-min Rain = 0
KJU1 141314Z 00000KT 26/20 A3004 RMK A01 T02560202  RH  072%=      5-min Rain = 0
KJU1 141315Z 00000KT 26/20 A3004 RMK A01 T02570203  RH  072%=      5-min Rain = 0
KJU1 141316Z 23000KT 26/20 A3005 RMK A01 T02580203  RH  072%=      5-min Rain = 0
KJU1 141317Z 00000KT 26/20 A3005 RMK A01 T02590203  RH  071%=      5-min Rain = 0
KJU1 141318Z 00000KT 26/20 A3005 RMK A01 T02610203  RH  071%=      5-min Rain = 0
KJU1 141319Z 00000KT 26/20 A3005 RMK A01 T02620203  RH  070%=      5-min Rain = 0
KJU1 141320Z 12000KT 26/20 A3005 RMK A01 T02640202  RH  069%=      5-min Rain = 0
KJU1 141321Z 11002KT 27/20 A3005 RMK A01 T02650202  RH  068%=      5-min Rain = 0
KJU1 141322Z 10002KT 27/20 A3005 RMK A01 T02660202  RH  068%=      5-min Rain = 0
KJU1 141323Z 11002KT 27/20 A3005 RMK A01 T02650202  RH  068%=      5-min Rain = 0
KJU1 141324Z 12001KT 26/20 A3005 RMK A01 T02640202  RH  068%=      5-min Rain = 0
KJU1 141325Z 15001KT 26/20 A3005 RMK A01 T02640202  RH  069%=      5-min Rain = 0
KJU1 141326Z 13001KT 27/20 A3005 RMK A01 T02650202  RH  068%=      5-min Rain = 0
KJU1 141327Z 13001KT 27/20 A3005 RMK A01 T02660203  RH  068%=      5-min Rain = 0
KJU1 141328Z 15000KT 27/20 A3005 RMK A01 T02680203  RH  068%=      5-min Rain = 0
KJU1 141329Z 16001KT 27/20 A3005 RMK A01 T02690203  RH  067%=      5-min Rain = 0
KJU1 141330Z 20000KT 27/20 A3005 RMK A01 T02700204  RH  067%=      5-min Rain = 0
KJU1 141331Z 18000KT 27/21 A3005 RMK A01 T02700205  RH  067%=      5-min Rain = 0
KJU1 141332Z 21000KT 27/21 A3005 RMK A01 T02700205  RH  067%=      5-min Rain = 0
KJU1 141333Z 19001KT 27/21 A3005 RMK A01 T02700205  RH  067%=      5-min Rain = 0
KJU1 141334Z 19001KT 27/21 A3005 RMK A01 T02710207  RH  068%=      5-min Rain = 0
KJU1 141335Z 18002KT 27/21 A3005 RMK A01 T02710207  RH  068%=      5-min Rain = 0
KJU1 141336Z 16001KT 27/21 A3005 RMK A01 T02710208  RH  068%=      5-min Rain = 0
KJU1 141337Z 18001KT 27/21 A3005 RMK A01 T02710208  RH  068%=      5-min Rain = 0
KJU1 141338Z 16001KT 27/21 A3005 RMK A01 T02710207  RH  068%=      5-min Rain = 0
KJU1 141339Z 14001KT 27/21 A3005 RMK A01 T02710207  RH  068%=      5-min Rain = 0
KJU1 141340Z 17001KT 27/21 A3005 RMK A01 T02710207  RH  068%=      5-min Rain = 0
KJU1 141341Z 19002KT 27/21 A3005 RMK A01 T02730208  RH  068%=      5-min Rain = 0
KJU1 141342Z 18002KT 27/21 A3005 RMK A01 T02740209  RH  068%=      5-min Rain = 0
KJU1 141343Z 17002KT 28/21 A3005 RMK A01 T02760211  RH  068%=      5-min Rain = 0
KJU1 141344Z 17002KT 28/21 A3005 RMK A01 T02760210  RH  067%=      5-min Rain = 0
KJU1 141345Z 16002KT 28/21 A3005 RMK A01 T02770210  RH  067%=      5-min Rain = 0
KJU1 141346Z 17002KT 28/21 A3005 RMK A01 T02770211  RH  067%=      5-min Rain = 0
KJU1 141347Z 18002KT 28/21 A3005 RMK A01 T02770211  RH  067%=      5-min Rain = 0
KJU1 141348Z 19002KT 28/21 A3005 RMK A01 T02770211  RH  067%=      5-min Rain = 0
KJU1 141349Z 17002KT 28/21 A3005 RMK A01 T02770211  RH  067%=      5-min Rain = 0
KJU1 141350Z 17002KT 28/21 A3005 RMK A01 T02780212  RH  067%=      5-min Rain = 0
KJU1 141351Z 18003KT 28/21 A3005 RMK A01 T02790212  RH  067%=      5-min Rain = 0
KJU1 141352Z 19002KT 28/21 A3005 RMK A01 T02790211  RH  067%=      5-min Rain = 0
KJU1 141353Z 19002KT 28/21 A3005 RMK A01 T02790212  RH  067%=      5-min Rain = 0
KJU1 141354Z 21002KT 28/21 A3005 RMK A01 T02800212  RH  066%=      5-min Rain = 0
KJU1 141355Z 18002KT 28/21 A3005 RMK A01 T02820213  RH  066%=      5-min Rain = 0
KJU1 141356Z 18001KT 28/21 A3005 RMK A01 T02820212  RH  066%=      5-min Rain = 0
KJU1 141357Z 24002KT 28/21 A3005 RMK A01 T02820213  RH  066%=      5-min Rain = 0
KJU1 141358Z 25001KT 28/21 A3005 RMK A01 T02830214  RH  066%=      5-min Rain = 0
KJU1 141359Z 25002KT 28/21 A3005 RMK A01 T02830214  RH  066%=      5-min Rain = 0
KJU1 141400Z 24003KT 28/21 A3005 RMK A01 T02830213  RH  066%=      5-min Rain = 0
KJU1 141401Z 22003KT 28/21 A3005 RMK A01 T02820214  RH  066%=      5-min Rain = 0
KJU1 141402Z 22002KT 28/21 A3005 RMK A01 T02820214  RH  066%=      5-min Rain = 0
KJU1 141403Z 21003KT 28/21 A3005 RMK A01 T02810213  RH  067%=      5-min Rain = 0
KJU1 141404Z 19002KT 28/21 A3005 RMK A01 T02810213  RH  066%=      5-min Rain = 0
KJU1 141405Z 19003KT 28/21 A3005 RMK A01 T02820213  RH  066%=      5-min Rain = 0
KJU1 141406Z 20004KT 28/21 A3005 RMK A01 T02820213  RH  066%=      5-min Rain = 0
KJU1 141407Z 21004KT 28/21 A3005 RMK A01 T02820213  RH  066%=      5-min Rain = 0
KJU1 141408Z 20004KT 28/21 A3005 RMK A01 T02820214  RH  066%=      5-min Rain = 0
KJU1 141409Z 20003KT 28/21 A3005 RMK A01 T02820214  RH  066%=      5-min Rain = 0
KJU1 141410Z 22002KT 28/21 A3005 RMK A01 T02820214  RH  066%=      5-min Rain = 0
KJU1 141411Z 19002KT 28/21 A3005 RMK A01 T02820214  RH  066%=      5-min Rain = 0
KJU1 141412Z 22002KT 28/21 A3005 RMK A01 T02830214  RH  066%=      5-min Rain = 0
KJU1 141413Z 23003KT 28/22 A3005 RMK A01 T02830215  RH  066%=      5-min Rain = 0
KJU1 141414Z 23002KT 28/22 A3005 RMK A01 T02840215  RH  066%=      5-min Rain = 0
KJU1 141415Z 22003KT 29/22 A3005 RMK A01 T02850215  RH  066%=      5-min Rain = 0
KJU1 141416Z 19002KT 29/21 A3005 RMK A01 T02850214  RH  066%=      5-min Rain = 0
KJU1 141417Z 19002KT 29/21 A3005 RMK A01 T02850214  RH  066%=      5-min Rain = 0
KJU1 141418Z 23002KT 29/21 A3005 RMK A01 T02850214  RH  066%=      5-min Rain = 0
KJU1 141419Z 23003KT 29/22 A3005 RMK A01 T02850215  RH  066%=      5-min Rain = 0
KJU1 141420Z 22003KT 29/21 A3005 RMK A01 T02860214  RH  065%=      5-min Rain = 0
KJU1 141421Z 22003KT 29/22 A3005 RMK A01 T02870215  RH  065%=      5-min Rain = 0
KJU1 141422Z 22003KT 29/21 A3005 RMK A01 T02870214  RH  065%=      5-min Rain = 0
KJU1 141423Z 22003KT 29/21 A3006 RMK A01 T02870214  RH  065%=      5-min Rain = 0
KJU1 141424Z 22003KT 29/22 A3006 RMK A01 T02880215  RH  065%=      5-min Rain = 0
KJU1 141425Z 22003KT 29/21 A3006 RMK A01 T02880214  RH  064%=      5-min Rain = 0
KJU1 141426Z 20003KT 29/21 A3006 RMK A01 T02880214  RH  064%=      5-min Rain = 0
KJU1 141427Z 19004KT 29/21 A3006 RMK A01 T02880214  RH  064%=      5-min Rain = 0
KJU1 141428Z 19003KT 29/21 A3006 RMK A01 T02890213  RH  063%=      5-min Rain = 0
KJU1 141429Z 19002KT 29/21 A3006 RMK A01 T02890213  RH  063%=      5-min Rain = 0
KJU1 141430Z 18003KT 29/21 A3006 RMK A01 T02900214  RH  063%=      5-min Rain = 0
KJU1 141431Z 18005KT 29/21 A3006 RMK A01 T02910214  RH  063%=      5-min Rain = 0
KJU1 141432Z 18004KT 29/21 A3006 RMK A01 T02910214  RH  063%=      5-min Rain = 0
KJU1 141433Z 19003KT 29/21 A3006 RMK A01 T02910214  RH  063%=      5-min Rain = 0
KJU1 141434Z 18005KT 29/21 A3006 RMK A01 T02900214  RH  063%=      5-min Rain = 0
KJU1 141435Z 17004KT 29/21 A3006 RMK A01 T02910213  RH  063%=      5-min Rain = 0
KJU1 141436Z 19004KT 29/21 A3006 RMK A01 T02910213  RH  063%=      5-min Rain = 0
KJU1 141437Z 17004KT 29/21 A3006 RMK A01 T02930214  RH  062%=      5-min Rain = 0
KJU1 141438Z 15004KT 30/21 A3006 RMK A01 T02950214  RH  062%=      5-min Rain = 0
KJU1 141439Z 16003KT 30/21 A3006 RMK A01 T02960213  RH  061%=      5-min Rain = 0
KJU1 141440Z 15002KT 30/21 A3006 RMK A01 T02960213  RH  061%=      5-min Rain = 0
KJU1 141441Z 13003KT 30/21 A3006 RMK A01 T02960213  RH  061%=      5-min Rain = 0
KJU1 141442Z 13001KT 30/21 A3006 RMK A01 T02960212  RH  061%=      5-min Rain = 0
KJU1 141443Z 18002KT 30/21 A3006 RMK A01 T02970213  RH  061%=      5-min Rain = 0
KJU1 141444Z 19004KT 30/21 A3006 RMK A01 T03000213  RH  060%=      5-min Rain = 0
KJU1 141445Z 20003KT 30/21 A3006 RMK A01 T03010212  RH  059%=      5-min Rain = 0
KJU1 141446Z 16004KT 30/21 A3006 RMK A01 T03000212  RH  059%=      5-min Rain = 0
KJU1 141447Z 18002KT 30/21 A3006 RMK A01 T03000212  RH  059%=      5-min Rain = 0
KJU1 141448Z 19005KT 30/21 A3006 RMK A01 T03010212  RH  059%=      5-min Rain = 0
KJU1 141449Z 16004KT 30/21 A3006 RMK A01 T03020211  RH  058%=      5-min Rain = 0
KJU1 141450Z 16004KT 30/21 A3006 RMK A01 T03030211  RH  058%=      5-min Rain = 0
KJU1 141451Z 17004KT 30/21 A3006 RMK A01 T03020210  RH  058%=      5-min Rain = 0
KJU1 141452Z 17003KT 30/21 A3006 RMK A01 T03010209  RH  058%=      5-min Rain = 0
KJU1 141453Z 17004KT 30/21 A3006 RMK A01 T03010209  RH  058%=      5-min Rain = 0
KJU1 141454Z 17004KT 30/21 A3007 RMK A01 T03000208  RH  058%=      5-min Rain = 0
KJU1 141455Z 17004KT 30/21 A3007 RMK A01 T02990209  RH  059%=      5-min Rain = 0
KJU1 141456Z 16004KT 30/21 A3007 RMK A01 T02980209  RH  059%=      5-min Rain = 0
KJU1 141457Z 18005KT 30/21 A3007 RMK A01 T02970209  RH  059%=      5-min Rain = 0
KJU1 141458Z 19005KT 30/21 A3007 RMK A01 T02980208  RH  059%=      5-min Rain = 0
KJU1 141459Z 17004KT 30/21 A3007 RMK A01 T02970207  RH  058%=      5-min Rain = 0
KJU1 141500Z 19004KT 30/21 A3007 RMK A01 T02960206  RH  058%=      5-min Rain = 0
KJU1 141501Z 18003KT 30/21 A3007 RMK A01 T02960206  RH  058%=      5-min Rain = 0
KJU1 141502Z 16003KT 30/21 A3007 RMK A01 T02970205  RH  058%=      5-min Rain = 0
KJU1 141503Z 20004KT 30/21 A3007 RMK A01 T02970206  RH  058%=      5-min Rain = 0
KJU1 141504Z 21005KT 30/21 A3007 RMK A01 T02980206  RH  058%=      5-min Rain = 0
KJU1 141505Z 18004KT 30/21 A3007 RMK A01 T02980205  RH  058%=      5-min Rain = 0
KJU1 141506Z 20004KT 30/21 A3007 RMK A01 T02970206  RH  058%=      5-min Rain = 0
KJU1 141507Z 20004KT 30/21 A3007 RMK A01 T02980205  RH  057%=      5-min Rain = 0
KJU1 141508Z 20004KT 30/21 A3007 RMK A01 T02990206  RH  058%=      5-min Rain = 0
KJU1 141509Z 20004KT 30/20 A3007 RMK A01 T02990204  RH  057%=      5-min Rain = 0
KJU1 141510Z 19003KT 30/20 A3007 RMK A01 T02990204  RH  057%=      5-min Rain = 0
KJU1 141511Z 19004KT 30/20 A3007 RMK A01 T02990204  RH  057%=      5-min Rain = 0
KJU1 141512Z 18003KT 30/20 A3007 RMK A01 T02990204  RH  057%=      5-min Rain = 0
KJU1 141513Z 19002KT 30/21 A3007 RMK A01 T02990205  RH  057%=      5-min Rain = 0
KJU1 141514Z 18004KT 30/21 A3007 RMK A01 T02980205  RH  057%=      5-min Rain = 0
KJU1 141515Z 20003KT 30/20 A3007 RMK A01 T02980204  RH  057%=      5-min Rain = 0
KJU1 141516Z 20003KT 30/21 A3007 RMK A01 T02990205  RH  057%=      5-min Rain = 0
KJU1 141517Z 20003KT 30/21 A3007 RMK A01 T03000205  RH  057%=      5-min Rain = 0
KJU1 141518Z 21003KT 30/21 A3007 RMK A01 T03000205  RH  057%=      5-min Rain = 0
KJU1 141519Z 21003KT 30/21 A3007 RMK A01 T03000205  RH  057%=      5-min Rain = 0
KJU1 141520Z 21003KT 30/21 A3008 RMK A01 T03010205  RH  057%=      5-min Rain = 0
KJU1 141521Z 20004KT 30/20 A3008 RMK A01 T03020204  RH  056%=      5-min Rain = 0
KJU1 141522Z 20004KT 30/20 A3008 RMK A01 T03020204  RH  056%=      5-min Rain = 0
KJU1 141523Z 20004KT 30/20 A3008 RMK A01 T03010204  RH  056%=      5-min Rain = 0
KJU1 141524Z 19003KT 30/20 A3008 RMK A01 T03010204  RH  056%=      5-min Rain = 0
KJU1 141525Z 19003KT 30/20 A3008 RMK A01 T03000204  RH  056%=      5-min Rain = 0
KJU1 141526Z 18003KT 30/20 A3008 RMK A01 T03010204  RH  056%=      5-min Rain = 0
KJU1 141527Z 19003KT 30/20 A3008 RMK A01 T03020203  RH  055%=      5-min Rain = 0
KJU1 141528Z 17004KT 30/20 A3008 RMK A01 T03020203  RH  055%=      5-min Rain = 0
KJU1 141529Z 16004KT 30/21 A3008 RMK A01 T03040205  RH  055%=      5-min Rain = 0
KJU1 141530Z 18004KT 31/20 A3008 RMK A01 T03070203  RH  054%=      5-min Rain = 0
KJU1 141531Z 16005KT 31/20 A3008 RMK A01 T03080202  RH  053%=      5-min Rain = 0
KJU1 141532Z 18003KT 31/20 A3008 RMK A01 T03080201  RH  053%=      5-min Rain = 0
KJU1 141533Z 18003KT 31/20 A3008 RMK A01 T03100204  RH  053%=      5-min Rain = 0
KJU1 141534Z 18003KT 31/20 A3008 RMK A01 T03130203  RH  052%=      5-min Rain = 0
KJU1 141535Z 18002KT 32/20 A3008 RMK A01 T03150203  RH  051%=      5-min Rain = 0
KJU1 141536Z 19003KT 32/20 A3008 RMK A01 T03170203  RH  051%=      5-min Rain = 0
KJU1 141537Z 15004KT 32/20 A3008 RMK A01 T03150201  RH  051%=      5-min Rain = 0
KJU1 141538Z 14004KT 31/20 A3008 RMK A01 T03130200  RH  051%=      5-min Rain = 0
KJU1 141539Z 14003KT 31/20 A3008 RMK A01 T03120200  RH  051%=      5-min Rain = 0
KJU1 141540Z 13002KT 31/20 A3008 RMK A01 T03120199  RH  051%=      5-min Rain = 0
KJU1 141541Z 14003KT 31/20 A3008 RMK A01 T03110199  RH  051%=      5-min Rain = 0
KJU1 141542Z 16003KT 31/20 A3008 RMK A01 T03120199  RH  051%=      5-min Rain = 0
KJU1 141543Z 17001KT 31/20 A3008 RMK A01 T03130199  RH  051%=      5-min Rain = 0
KJU1 141544Z 14001KT 31/20 A3008 RMK A01 T03140200  RH  051%=      5-min Rain = 0
KJU1 141545Z 13004KT 32/20 A3008 RMK A01 T03160201  RH  050%=      5-min Rain = 0
KJU1 141546Z 15004KT 32/20 A3008 RMK A01 T03160201  RH  051%=      5-min Rain = 0
KJU1 141547Z 18004KT 32/20 A3008 RMK A01 T03160201  RH  050%=      5-min Rain = 0
KJU1 141548Z 18002KT 32/20 A3008 RMK A01 T03150198  RH  050%=      5-min Rain = 0
KJU1 141549Z 16003KT 31/20 A3008 RMK A01 T03130199  RH  051%=      5-min Rain = 0
KJU1 141550Z 16004KT 31/20 A3008 RMK A01 T03120200  RH  051%=      5-min Rain = 0
KJU1 141551Z 18003KT 31/20 A3008 RMK A01 T03120199  RH  051%=      5-min Rain = 0
KJU1 141552Z 18002KT 31/20 A3008 RMK A01 T03110199  RH  051%=      5-min Rain = 0
KJU1 141553Z 14002KT 31/20 A3008 RMK A01 T03110198  RH  051%=      5-min Rain = 0
KJU1 141554Z 19002KT 31/20 A3008 RMK A01 T03120199  RH  051%=      5-min Rain = 0
KJU1 141555Z 22002KT 31/20 A3008 RMK A01 T03130199  RH  051%=      5-min Rain = 0
KJU1 141556Z 24002KT 31/20 A3008 RMK A01 T03140195  RH  049%=      5-min Rain = 0
KJU1 141557Z 24001KT 32/20 A3008 RMK A01 T03150195  RH  049%=      5-min Rain = 0
KJU1 141558Z 21002KT 32/20 A3008 RMK A01 T03180195  RH  048%=      5-min Rain = 0
KJU1 141559Z 23001KT 32/19 A3008 RMK A01 T03200192  RH  047%=      5-min Rain = 0
KJU1 141600Z 25000KT 32/19 A3008 RMK A01 T03200192  RH  047%=      5-min Rain = 0
KJU1 141601Z 00000KT 32/20 A3008 RMK A01 T03210195  RH  047%=      5-min Rain = 0
KJU1 141602Z 00000KT 32/19 A3008 RMK A01 T03210193  RH  047%=      5-min Rain = 0
KJU1 141603Z 03001KT 32/19 A3008 RMK A01 T03230193  RH  046%=      5-min Rain = 0
KJU1 141604Z 34001KT 32/19 A3008 RMK A01 T03220193  RH  047%=      5-min Rain = 0
KJU1 141605Z 30000KT 32/19 A3008 RMK A01 T03200194  RH  047%=      5-min Rain = 0
KJU1 141606Z 01000KT 32/19 A3008 RMK A01 T03190192  RH  047%=      5-min Rain = 0
KJU1 141607Z 34001KT 32/19 A3008 RMK A01 T03180192  RH  047%=      5-min Rain = 0
KJU1 141608Z 35001KT 32/19 A3008 RMK A01 T03160193  RH  048%=      5-min Rain = 0
KJU1 141609Z 35000KT 32/19 A3008 RMK A01 T03160194  RH  049%=      5-min Rain = 0
KJU1 141610Z 33000KT 32/20 A3008 RMK A01 T03150195  RH  049%=      5-min Rain = 0
KJU1 141611Z 29001KT 32/20 A3008 RMK A01 T03160195  RH  049%=      5-min Rain = 0
KJU1 141612Z 24001KT 32/19 A3008 RMK A01 T03170194  RH  048%=      5-min Rain = 0
KJU1 141613Z 23000KT 32/19 A3008 RMK A01 T03180193  RH  047%=      5-min Rain = 0
KJU1 141614Z 28000KT 32/19 A3008 RMK A01 T03190193  RH  047%=      5-min Rain = 0
KJU1 141615Z 07000KT 32/20 A3008 RMK A01 T03200195  RH  048%=      5-min Rain = 0
KJU1 141616Z 13000KT 32/20 A3008 RMK A01 T03230198  RH  048%=      5-min Rain = 0
KJU1 141617Z 12002KT 33/20 A3008 RMK A01 T03250199  RH  047%=      5-min Rain = 0
KJU1 141618Z 15000KT 33/20 A3008 RMK A01 T03250199  RH  048%=      5-min Rain = 0
KJU1 141619Z 36000KT 33/20 A3008 RMK A01 T03250198  RH  047%=      5-min Rain = 0
KJU1 141620Z 14001KT 33/20 A3008 RMK A01 T03260197  RH  047%=      5-min Rain = 0
KJU1 141621Z 27001KT 33/20 A3008 RMK A01 T03270199  RH  047%=      5-min Rain = 0
KJU1 141622Z 20000KT 33/20 A3008 RMK A01 T03280197  RH  046%=      5-min Rain = 0
KJU1 141623Z 27001KT 33/20 A3008 RMK A01 T03290195  RH  045%=      5-min Rain = 0
KJU1 141624Z 28002KT 33/20 A3008 RMK A01 T03270195  RH  046%=      5-min Rain = 0
KJU1 141625Z 01002KT 33/20 A3008 RMK A01 T03260197  RH  047%=      5-min Rain = 0
KJU1 141626Z 01004KT 33/20 A3008 RMK A01 T03270198  RH  047%=      5-min Rain = 0
KJU1 141627Z 01003KT 33/20 A3008 RMK A01 T03290199  RH  046%=      5-min Rain = 0
KJU1 141628Z 02003KT 33/20 A3008 RMK A01 T03310199  RH  046%=      5-min Rain = 0
KJU1 141629Z 36003KT 33/20 A3008 RMK A01 T03310200  RH  046%=      5-min Rain = 0
KJU1 141630Z 34002KT 33/20 A3008 RMK A01 T03300199  RH  046%=      5-min Rain = 0
KJU1 141631Z 01003KT 33/20 A3008 RMK A01 T03310200  RH  046%=      5-min Rain = 0
KJU1 141632Z 35004KT 33/20 A3008 RMK A01 T03310200  RH  046%=      5-min Rain = 0
KJU1 141633Z 34004KT 33/20 A3008 RMK A01 T03310201  RH  046%=      5-min Rain = 0
KJU1 141634Z 34005KT 33/20 A3008 RMK A01 T03320201  RH  046%=      5-min Rain = 0
KJU1 141635Z 36005KT 33/20 A3008 RMK A01 T03320201  RH  046%=      5-min Rain = 0
KJU1 141636Z 36005KT 34/20 A3008 RMK A01 T03350201  RH  045%=      5-min Rain = 0
KJU1 141637Z 01005KT 34/20 A3008 RMK A01 T03360199  RH  044%=      5-min Rain = 0
KJU1 141638Z 34005KT 34/20 A3008 RMK A01 T03350200  RH  045%=      5-min Rain = 0
KJU1 141639Z 35005KT 34/20 A3008 RMK A01 T03370199  RH  044%=      5-min Rain = 0
KJU1 141640Z 34003KT 34/20 A3008 RMK A01 T03360200  RH  045%=      5-min Rain = 0
KJU1 141641Z 32005KT 34/20 A3008 RMK A01 T03350200  RH  045%=      5-min Rain = 0
KJU1 141642Z 33005KT 33/20 A3008 RMK A01 T03340200  RH  045%=      5-min Rain = 0
KJU1 141643Z 32003KT 33/20 A3008 RMK A01 T03320197  RH  045%=      5-min Rain = 0
KJU1 141644Z 33003KT 33/20 A3008 RMK A01 T03310197  RH  045%=      5-min Rain = 0
KJU1 141645Z 33003KT 33/20 A3008 RMK A01 T03320199  RH  046%=      5-min Rain = 0
KJU1 141646Z 34005KT 33/20 A3008 RMK A01 T03340199  RH  045%=      5-min Rain = 0
KJU1 141647Z 34003KT 34/20 A3008 RMK A01 T03360197  RH  044%=      5-min Rain = 0
KJU1 141648Z 34003KT 34/20 A3008 RMK A01 T03360200  RH  045%=      5-min Rain = 0
KJU1 141649Z 34004KT 34/20 A3008 RMK A01 T03400200  RH  044%=      5-min Rain = 0
KJU1 141650Z 33003KT 34/20 A3008 RMK A01 T03430200  RH  043%=      5-min Rain = 0
KJU1 141651Z 34004KT 35/20 A3008 RMK A01 T03450200  RH  043%=      5-min Rain = 0
KJU1 141652Z 35004KT 35/20 A3008 RMK A01 T03450199  RH  042%=      5-min Rain = 0
KJU1 141653Z 01003KT 34/20 A3008 RMK A01 T03430196  RH  042%=      5-min Rain = 0
KJU1 141654Z 34002KT 34/20 A3008 RMK A01 T03410197  RH  043%=      5-min Rain = 0
KJU1 141655Z 35003KT 34/20 A3008 RMK A01 T03400198  RH  044%=      5-min Rain = 0
KJU1 141656Z 35004KT 34/20 A3008 RMK A01 T03420198  RH  043%=      5-min Rain = 0
KJU1 141657Z 36003KT 34/20 A3008 RMK A01 T03430196  RH  042%=      5-min Rain = 0
KJU1 141658Z 35004KT 34/19 A3008 RMK A01 T03440193  RH  041%=      5-min Rain = 0
KJU1 141659Z 00002KT 34/19 A3008 RMK A01 T03440192  RH  041%=      5-min Rain = 0
KJU1 141700Z 03001KT 34/19 A3008 RMK A01 T03440193  RH  041%=      5-min Rain = 0
KJU1 141701Z 02003KT 34/19 A3008 RMK A01 T03440194  RH  041%=      5-min Rain = 0
KJU1 141702Z 03005KT 35/20 A3008 RMK A01 T03450195  RH  041%=      5-min Rain = 0
KJU1 141703Z 03006KT 34/19 A3008 RMK A01 T03430190  RH  041%=      5-min Rain = 0
KJU1 141704Z 02004KT 34/19 A3008 RMK A01 T03390187  RH  041%=      5-min Rain = 0
KJU1 141705Z 01002KT 34/19 A3008 RMK A01 T03370188  RH  041%=      5-min Rain = 0
KJU1 141706Z 04001KT 34/19 A3008 RMK A01 T03370188  RH  041%=      5-min Rain = 0
KJU1 141707Z 34003KT 34/19 A3008 RMK A01 T03370188  RH  041%=      5-min Rain = 0
KJU1 141708Z 31003KT 34/19 A3008 RMK A01 T03410188  RH  041%=      5-min Rain = 0
KJU1 141709Z 01002KT 34/19 A3008 RMK A01 T03420190  RH  041%=      5-min Rain = 0
KJU1 141710Z 05002KT 35/19 A3008 RMK A01 T03450192  RH  041%=      5-min Rain = 0
KJU1 141711Z 08004KT 35/20 A3008 RMK A01 T03470195  RH  041%=      5-min Rain = 0
KJU1 141712Z 06004KT 35/20 A3008 RMK A01 T03480196  RH  041%=      5-min Rain = 0
KJU1 141713Z 03006KT 35/20 A3008 RMK A01 T03510197  RH  040%=      5-min Rain = 0
KJU1 141714Z 03004KT 35/20 A3008 RMK A01 T03540196  RH  040%=      5-min Rain = 0
KJU1 141715Z 06002KT 35/20 A3008 RMK A01 T03500195  RH  040%=      5-min Rain = 0
KJU1 141716Z 01002KT 35/20 A3008 RMK A01 T03460196  RH  041%=      5-min Rain = 0
KJU1 141717Z 00001KT 35/20 A3008 RMK A01 T03460196  RH  041%=      5-min Rain = 0
KJU1 141718Z 28001KT 35/20 A3008 RMK A01 T03460195  RH  041%=      5-min Rain = 0
KJU1 141719Z 24002KT 35/20 A3007 RMK A01 T03470196  RH  041%=      5-min Rain = 0
KJU1 141720Z 24002KT 35/19 A3007 RMK A01 T03460194  RH  041%=      5-min Rain = 0
KJU1 141721Z 04002KT 35/20 A3007 RMK A01 T03450195  RH  042%=      5-min Rain = 0
KJU1 141722Z 02006KT 35/19 A3007 RMK A01 T03470194  RH  041%=      5-min Rain = 0
KJU1 141723Z 35005KT 35/20 A3007 RMK A01 T03460195  RH  041%=      5-min Rain = 0
KJU1 141724Z 36006KT 35/20 A3007 RMK A01 T03480195  RH  041%=      5-min Rain = 0
KJU1 141725Z 00004KT 35/19 A3007 RMK A01 T03480193  RH  040%=      5-min Rain = 0
KJU1 141726Z 03005KT 35/19 A3007 RMK A01 T03480194  RH  040%=      5-min Rain = 0
KJU1 141727Z 01003KT 35/19 A3007 RMK A01 T03500194  RH  040%=      5-min Rain = 0
KJU1 141728Z 32002KT 35/19 A3007 RMK A01 T03490193  RH  040%=      5-min Rain = 0
KJU1 141729Z 27002KT 35/19 A3007 RMK A01 T03470192  RH  040%=      5-min Rain = 0
KJU1 141730Z 26002KT 35/19 A3007 RMK A01 T03470192  RH  040%=      5-min Rain = 0
KJU1 141731Z 02002KT 35/19 A3007 RMK A01 T03480193  RH  040%=      5-min Rain = 0
KJU1 141732Z 06003KT 35/19 A3007 RMK A01 T03490194  RH  040%=      5-min Rain = 0
KJU1 141733Z 03005KT 35/20 A3007 RMK A01 T03530197  RH  040%=      5-min Rain = 0
KJU1 141734Z 04007KT 36/20 A3007 RMK A01 T03570196  RH  039%=      5-min Rain = 0
KJU1 141735Z 03005KT 35/19 A3007 RMK A01 T03540194  RH  039%=      5-min Rain = 0
KJU1 141736Z 05005KT 35/20 A3007 RMK A01 T03510195  RH  040%=      5-min Rain = 0
KJU1 141737Z 06001KT 35/19 A3007 RMK A01 T03530194  RH  039%=      5-min Rain = 0
KJU1 141738Z 05001KT 35/20 A3007 RMK A01 T03510195  RH  040%=      5-min Rain = 0
KJU1 141739Z 04003KT 35/20 A3007 RMK A01 T03520195  RH  040%=      5-min Rain = 0
KJU1 141740Z 03005KT 36/20 A3007 RMK A01 T03550197  RH  040%=      5-min Rain = 0
KJU1 141741Z 11002KT 36/20 A3007 RMK A01 T03550197  RH  039%=      5-min Rain = 0
KJU1 141742Z 09001KT 35/20 A3007 RMK A01 T03510196  RH  040%=      5-min Rain = 0
KJU1 141743Z 27001KT 35/20 A3007 RMK A01 T03510197  RH  040%=      5-min Rain = 0
KJU1 141744Z 01003KT 35/20 A3007 RMK A01 T03540197  RH  040%=      5-min Rain = 0
KJU1 141745Z 36004KT 36/20 A3007 RMK A01 T03580196  RH  039%=      5-min Rain = 0
KJU1 141746Z 34004KT 36/20 A3006 RMK A01 T03570195  RH  039%=      5-min Rain = 0
KJU1 141747Z 33004KT 36/19 A3006 RMK A01 T03550194  RH  039%=      5-min Rain = 0
KJU1 141748Z 35003KT 35/19 A3006 RMK A01 T03540194  RH  039%=      5-min Rain = 0
KJU1 141749Z 05002KT 35/19 A3006 RMK A01 T03530194  RH  039%=      5-min Rain = 0
KJU1 141750Z 08002KT 35/19 A3006 RMK A01 T03510194  RH  040%=      5-min Rain = 0
KJU1 141751Z 02002KT 35/20 A3006 RMK A01 T03490195  RH  040%=      5-min Rain = 0
KJU1 141752Z 36002KT 35/20 A3006 RMK A01 T03530195  RH  040%=      5-min Rain = 0
KJU1 141753Z 33001KT 36/20 A3006 RMK A01 T03560195  RH  039%=      5-min Rain = 0
KJU1 141754Z 33004KT 36/19 A3006 RMK A01 T03560194  RH  039%=      5-min Rain = 0
KJU1 141755Z 35004KT 36/20 A3006 RMK A01 T03550195  RH  039%=      5-min Rain = 0
KJU1 141756Z 01004KT 36/20 A3006 RMK A01 T03560196  RH  039%=      5-min Rain = 0
KJU1 141757Z 02007KT 36/19 A3006 RMK A01 T03580194  RH  038%=      5-min Rain = 0
KJU1 141758Z 04008KT 36/19 A3006 RMK A01 T03550193  RH  039%=      5-min Rain = 0
KJU1 141759Z 05006KT 35/19 A3006 RMK A01 T03510193  RH  039%=      5-min Rain = 0
KJU1 141800Z 04005KT 35/19 A3006 RMK A01 T03510192  RH  039%=      5-min Rain = 0
KJU1 141801Z 07004KT 35/19 A3006 RMK A01 T03510192  RH  039%=      5-min Rain = 0
KJU1 141802Z 09004KT 35/19 A3006 RMK A01 T03510193  RH  039%=      5-min Rain = 0
KJU1 141803Z 09003KT 35/19 A3006 RMK A01 T03510192  RH  039%=      5-min Rain = 0
KJU1 141804Z 36003KT 35/19 A3006 RMK A01 T03510193  RH  040%=      5-min Rain = 0
KJU1 141805Z 34005KT 35/19 A3006 RMK A01 T03530192  RH  039%=      5-min Rain = 0
KJU1 141806Z 36004KT 35/19 A3006 RMK A01 T03500191  RH  039%=      5-min Rain = 0
KJU1 141807Z 36004KT 35/19 A3006 RMK A01 T03490191  RH  040%=      5-min Rain = 0
KJU1 141808Z 03005KT 35/19 A3006 RMK A01 T03490189  RH  039%=      5-min Rain = 0
KJU1 141809Z 06007KT 35/19 A3006 RMK A01 T03520187  RH  038%=      5-min Rain = 0
KJU1 141810Z 06007KT 35/19 A3006 RMK A01 T03540186  RH  037%=      5-min Rain = 0
KJU1 141811Z 05006KT 35/19 A3006 RMK A01 T03510186  RH  038%=      5-min Rain = 0
KJU1 141812Z 03005KT 35/19 A3006 RMK A01 T03500186  RH  038%=      5-min Rain = 0
KJU1 141813Z 36003KT 35/19 A3006 RMK A01 T03500185  RH  038%=      5-min Rain = 0
KJU1 141814Z 04002KT 35/19 A3006 RMK A01 T03490186  RH  038%=      5-min Rain = 0
KJU1 141815Z 03004KT 35/19 A3006 RMK A01 T03510188  RH  038%=      5-min Rain = 0
KJU1 141816Z 02004KT 35/19 A3006 RMK A01 T03540186  RH  037%=      5-min Rain = 0
KJU1 141817Z 04003KT 35/19 A3006 RMK A01 T03510186  RH  038%=      5-min Rain = 0
KJU1 141818Z 03003KT 35/19 A3005 RMK A01 T03510188  RH  038%=      5-min Rain = 0
KJU1 141819Z 01002KT 35/19 A3005 RMK A01 T03520187  RH  038%=      5-min Rain = 0
KJU1 141820Z 04001KT 35/19 A3005 RMK A01 T03540188  RH  038%=      5-min Rain = 0
KJU1 141821Z 02002KT 36/19 A3005 RMK A01 T03550188  RH  037%=      5-min Rain = 0
KJU1 141822Z 03004KT 36/19 A3005 RMK A01 T03560187  RH  037%=      5-min Rain = 0
KJU1 141823Z 03006KT 36/19 A3005 RMK A01 T03570185  RH  037%=      5-min Rain = 0
KJU1 141824Z 04008KT 36/18 A3005 RMK A01 T03560184  RH  036%=      5-min Rain = 0
KJU1 141825Z 04007KT 36/18 A3005 RMK A01 T03560182  RH  036%=      5-min Rain = 0
KJU1 141826Z 04005KT 36/18 A3005 RMK A01 T03570183  RH  036%=      5-min Rain = 0
KJU1 141827Z 03007KT 36/18 A3005 RMK A01 T03600184  RH  036%=      5-min Rain = 0
KJU1 141828Z 03006KT 36/18 A3005 RMK A01 T03630183  RH  035%=      5-min Rain = 0
KJU1 141829Z 03005KT 36/18 A3005 RMK A01 T03600184  RH  036%=      5-min Rain = 0
KJU1 141830Z 05005KT 36/18 A3005 RMK A01 T03600182  RH  035%=      5-min Rain = 0
KJU1 141831Z 02003KT 36/18 A3005 RMK A01 T03580178  RH  035%=      5-min Rain = 0
KJU1 141832Z 03002KT 36/18 A3005 RMK A01 T03560181  RH  036%=      5-min Rain = 0
KJU1 141833Z 07005KT 36/18 A3005 RMK A01 T03590183  RH  036%=      5-min Rain = 0
KJU1 141834Z 10004KT 36/18 A3005 RMK A01 T03620182  RH  035%=      5-min Rain = 0
KJU1 141835Z 10003KT 36/18 A3005 RMK A01 T03630183  RH  035%=      5-min Rain = 0
KJU1 141836Z 02005KT 37/19 A3004 RMK A01 T03650185  RH  035%=      5-min Rain = 0
KJU1 141837Z 04006KT 37/18 A3005 RMK A01 T03680184  RH  034%=      5-min Rain = 0
KJU1 141838Z 03003KT 37/18 A3004 RMK A01 T03660182  RH  034%=      5-min Rain = 0
KJU1 141839Z 09002KT 37/18 A3004 RMK A01 T03650181  RH  034%=      5-min Rain = 0
KJU1 141840Z 08004KT 37/18 A3004 RMK A01 T03650183  RH  034%=      5-min Rain = 0
KJU1 141841Z 09001KT 37/18 A3004 RMK A01 T03660183  RH  034%=      5-min Rain = 0
KJU1 141842Z 09003KT 37/18 A3004 RMK A01 T03670181  RH  034%=      5-min Rain = 0
KJU1 141843Z 07003KT 37/18 A3004 RMK A01 T03660182  RH  034%=      5-min Rain = 0
KJU1 141844Z 02005KT 37/18 A3004 RMK A01 T03660183  RH  034%=      5-min Rain = 0
KJU1 141845Z 03003KT 37/18 A3004 RMK A01 T03660181  RH  034%=      5-min Rain = 0
KJU1 141846Z 01003KT 36/18 A3004 RMK A01 T03630182  RH  034%=      5-min Rain = 0
KJU1 141847Z 01007KT 36/18 A3004 RMK A01 T03640183  RH  034%=      5-min Rain = 0
KJU1 141848Z 01007KT 37/18 A3003 RMK A01 T03670182  RH  034%=      5-min Rain = 0
KJU1 141849Z 03007KT 37/18 A3003 RMK A01 T03650182  RH  034%=      5-min Rain = 0
KJU1 141850Z 04007KT 37/18 A3003 RMK A01 T03650181  RH  034%=      5-min Rain = 0
KJU1 141851Z 06005KT 36/18 A3003 RMK A01 T03640179  RH  034%=      5-min Rain = 0
KJU1 141852Z 02003KT 37/18 A3003 RMK A01 T03660181  RH  034%=      5-min Rain = 0
KJU1 141853Z 29002KT 37/18 A3003 RMK A01 T03680179  RH  033%=      5-min Rain = 0
KJU1 141854Z 29002KT 37/18 A3003 RMK A01 T03670182  RH  034%=      5-min Rain = 0
KJU1 141855Z 34001KT 37/18 A3003 RMK A01 T03680183  RH  034%=      5-min Rain = 0
KJU1 141856Z 03005KT 37/18 A3003 RMK A01 T03690184  RH  034%=      5-min Rain = 0
KJU1 141857Z 04007KT 37/19 A3003 RMK A01 T03710185  RH  034%=      5-min Rain = 0
KJU1 141858Z 03006KT 37/18 A3003 RMK A01 T03670184  RH  034%=      5-min Rain = 0
KJU1 141859Z 06004KT 37/19 A3003 RMK A01 T03660186  RH  035%=      5-min Rain = 0
KJU1 141900Z 03005KT 37/19 A3003 RMK A01 T03690186  RH  034%=      5-min Rain = 0
KJU1 141901Z 04005KT 37/19 A3003 RMK A01 T03700186  RH  034%=      5-min Rain = 0
KJU1 141902Z 35007KT 37/19 A3003 RMK A01 T03710188  RH  034%=      5-min Rain = 0
KJU1 141903Z 01006KT 37/19 A3003 RMK A01 T03710187  RH  034%=      5-min Rain = 0
KJU1 141904Z 35005KT 37/19 A3003 RMK A01 T03720186  RH  034%=      5-min Rain = 0
KJU1 141905Z 33005KT 37/18 A3003 RMK A01 T03700184  RH  034%=      5-min Rain = 0
KJU1 141906Z 30003KT 37/18 A3003 RMK A01 T03670184  RH  034%=      5-min Rain = 0
KJU1 141907Z 29004KT 37/18 A3003 RMK A01 T03650184  RH  035%=      5-min Rain = 0
KJU1 141908Z 28005KT 36/19 A3003 RMK A01 T03640185  RH  035%=      5-min Rain = 0
KJU1 141909Z 30002KT 36/19 A3003 RMK A01 T03640186  RH  035%=      5-min Rain = 0
KJU1 141910Z 01003KT 37/19 A3002 RMK A01 T03680187  RH  035%=      5-min Rain = 0
KJU1 141911Z 01002KT 37/19 A3002 RMK A01 T03710188  RH  034%=      5-min Rain = 0
KJU1 141912Z 02003KT 37/19 A3002 RMK A01 T03720189  RH  034%=      5-min Rain = 0
KJU1 141913Z 02007KT 38/19 A3002 RMK A01 T03750188  RH  034%=      5-min Rain = 0
KJU1 141914Z 02008KT 38/19 A3002 RMK A01 T03750188  RH  034%=      5-min Rain = 0
KJU1 141915Z 03009KT 38/19 A3002 RMK A01 T03750189  RH  034%=      5-min Rain = 0
KJU1 141916Z 03008KT 38/19 A3002 RMK A01 T03750188  RH  034%=      5-min Rain = 0
KJU1 141917Z 04005KT 37/19 A3002 RMK A01 T03720187  RH  034%=      5-min Rain = 0
KJU1 141918Z 03002KT 37/19 A3002 RMK A01 T03690188  RH  035%=      5-min Rain = 0
KJU1 141919Z 02004KT 37/19 A3002 RMK A01 T03700187  RH  034%=      5-min Rain = 0
KJU1 141920Z 04010KT 37/19 A3002 RMK A01 T03710190  RH  035%=      5-min Rain = 0
KJU1 141921Z 05011KT 37/19 A3002 RMK A01 T03740189  RH  034%=      5-min Rain = 0
KJU1 141922Z 03008KT 37/19 A3002 RMK A01 T03710188  RH  034%=      5-min Rain = 0
KJU1 141923Z 03007KT 37/19 A3002 RMK A01 T03680187  RH  035%=      5-min Rain = 0
KJU1 141924Z 03005KT 36/19 A3002 RMK A01 T03620186  RH  036%=      5-min Rain = 0
KJU1 141925Z 34003KT 36/19 A3001 RMK A01 T03590186  RH  036%=      5-min Rain = 0
KJU1 141926Z 33003KT 36/19 A3001 RMK A01 T03590186  RH  036%=      5-min Rain = 0
KJU1 141927Z 34002KT 36/19 A3001 RMK A01 T03590185  RH  036%=      5-min Rain = 0
KJU1 141928Z 03002KT 36/19 A3001 RMK A01 T03580186  RH  036%=      5-min Rain = 0
KJU1 141929Z 34003KT 36/19 A3001 RMK A01 T03590186  RH  036%=      5-min Rain = 0
KJU1 141930Z 31002KT 36/19 A3001 RMK A01 T03610187  RH  036%=      5-min Rain = 0
KJU1 141931Z 28002KT 36/19 A3001 RMK A01 T03610186  RH  036%=      5-min Rain = 0
KJU1 141932Z 28002KT 36/19 A3001 RMK A01 T03620186  RH  036%=      5-min Rain = 0
KJU1 141933Z 17003KT 36/19 A3001 RMK A01 T03630187  RH  036%=      5-min Rain = 0
KJU1 141934Z 12004KT 37/19 A3001 RMK A01 T03660188  RH  035%=      5-min Rain = 0
KJU1 141935Z 14006KT 37/19 A3001 RMK A01 T03680189  RH  035%=      5-min Rain = 0
KJU1 141936Z 12004KT 37/19 A3001 RMK A01 T03700190  RH  035%=      5-min Rain = 0
KJU1 141937Z 15001KT 37/19 A3001 RMK A01 T03710189  RH  035%=      5-min Rain = 0
KJU1 141938Z 14006G13KT 37/19 A3001 RMK A01 T03690189  RH  035%=      5-min Rain = 0
KJU1 141939Z 15007KT 37/19 A3001 RMK A01 T03710189  RH  035%=      5-min Rain = 0
KJU1 141940Z 15006KT 37/19 A30 RMK A01 T03740190  RH  034%=      5-min Rain = 0
KJU1 141941Z 15006KT 37/19 A30 RMK A01 T03740190  RH  034%=      5-min Rain = 0
KJU1 141942Z 16004KT 37/19 A30 RMK A01 T03740189  RH  034%=      5-min Rain = 0
KJU1 141943Z 17004KT 37/19 A30 RMK A01 T03740189  RH  034%=      5-min Rain = 0
KJU1 141944Z 15007KT 37/19 A30 RMK A01 T03730190  RH  034%=      5-min Rain = 0
KJU1 141945Z 15009KT 37/19 A30 RMK A01 T03740191  RH  034%=      5-min Rain = 0
KJU1 141946Z 17007KT 37/19 A30 RMK A01 T03730189  RH  034%=      5-min Rain = 0
KJU1 141947Z 18005KT 37/19 A30 RMK A01 T03680188  RH  035%=      5-min Rain = 0
KJU1 141948Z 18005KT 37/19 A30 RMK A01 T03660188  RH  035%=      5-min Rain = 0
KJU1 141949Z 18007KT 37/19 A30 RMK A01 T03650188  RH  036%=      5-min Rain = 0
KJU1 141950Z 19006KT 36/19 A30 RMK A01 T03640188  RH  036%=      5-min Rain = 0
KJU1 141951Z 14005G10KT 36/19 A30 RMK A01 T03620188  RH  036%=      5-min Rain = 0
KJU1 141952Z 12008KT 36/19 A30 RMK A01 T03630189  RH  036%=      5-min Rain = 0
KJU1 141953Z 10005KT 36/19 A30 RMK A01 T03640189  RH  036%=      5-min Rain = 0
KJU1 141954Z 09004KT 36/19 A30 RMK A01 T03640190  RH  036%=      5-min Rain = 0
KJU1 141955Z 10005KT 37/19 A30 RMK A01 T03670190  RH  036%=      5-min Rain = 0
KJU1 141956Z 12006KT 37/19 A30 RMK A01 T03680190  RH  035%=      5-min Rain = 0
KJU1 141957Z 14008KT 37/19 A2999 RMK A01 T03680190  RH  035%=      5-min Rain = 0
KJU1 141958Z 12005KT 37/19 A30 RMK A01 T03650188  RH  036%=      5-min Rain = 0
KJU1 141959Z 13005KT 36/19 A30 RMK A01 T03630188  RH  036%=      5-min Rain = 0
KJU1 142000Z 13003KT 36/19 A30 RMK A01 T03600187  RH  036%=      5-min Rain = 0
KJU1 142001Z 13002KT 36/19 A30 RMK A01 T03590188  RH  037%=      5-min Rain = 0
KJU1 142002Z 14003KT 36/19 A30 RMK A01 T03590188  RH  037%=      5-min Rain = 0
KJU1 142003Z 08009KT 36/19 A30 RMK A01 T03600188  RH  036%=      5-min Rain = 0
KJU1 142004Z 10006KT 36/19 A30 RMK A01 T03610188  RH  036%=      5-min Rain = 0
KJU1 142005Z 13006KT 36/19 A30 RMK A01 T03610189  RH  036%=      5-min Rain = 0
KJU1 142006Z 11006KT 36/19 A30 RMK A01 T03610188  RH  036%=      5-min Rain = 0
KJU1 142007Z 09006KT 36/19 A30 RMK A01 T03610188  RH  036%=      5-min Rain = 0
KJU1 142008Z 08005KT 36/19 A30 RMK A01 T03610188  RH  036%=      5-min Rain = 0
KJU1 142009Z 09004KT 36/19 A30 RMK A01 T03580187  RH  037%=      5-min Rain = 0
KJU1 142010Z 06000KT 36/19 A2999 RMK A01 T03570187  RH  037%=      5-min Rain = 0
KJU1 142011Z 32001KT 36/19 A2999 RMK A01 T03570187  RH  037%=      5-min Rain = 0
KJU1 142012Z 01003KT 36/19 A30 RMK A01 T03580187  RH  037%=      5-min Rain = 0
KJU1 142013Z 34002KT 36/19 A2999 RMK A01 T03580187  RH  036%=      5-min Rain = 0
KJU1 142014Z 36003KT 36/19 A2999 RMK A01 T03590187  RH  037%=      5-min Rain = 0
KJU1 142015Z 01005KT 36/19 A30 RMK A01 T03590185  RH  036%=      5-min Rain = 0
KJU1 142016Z 03005KT 36/19 A30 RMK A01 T03590186  RH  036%=      5-min Rain = 0
KJU1 142017Z 02003KT 36/19 A30 RMK A01 T03590187  RH  036%=      5-min Rain = 0
KJU1 142018Z 32009G17KT 36/19 A30 RMK A01 T03590186  RH  036%=      5-min Rain = 0
KJU1 142019Z 33014G19KT 35/19 A3001 RMK A01 T03520185  RH  037%=      5-min Rain = 0
KJU1 142020Z 33010KT 34/18 A3001 RMK A01 T03350183  RH  041%=      5-min Rain = 0
KJU1 142021Z 32007KT 33/18 A3001 RMK A01 T03260183  RH  043%=      5-min Rain = 0
KJU1 142022Z 34009G16KT 32/18 A3001 RMK A01 T03210184  RH  044%=      5-min Rain = 0
KJU1 142023Z 34009KT 32/18 A3001 RMK A01 T03180184  RH  045%=      5-min Rain = 0
KJU1 142024Z 33007KT 31/18 A3001 RMK A01 T03140184  RH  046%=      5-min Rain = 0
KJU1 142025Z 34008G14KT 31/18 A3001 RMK A01 T03110184  RH  047%=      5-min Rain = 0
KJU1 142026Z 34010G16KT 31/18 A3001 RMK A01 T03100183  RH  047%=      5-min Rain = 0
KJU1 142027Z 33015G22KT 31/19 A3001 RMK A01 T03090185  RH  047%=      5-min Rain = 0
KJU1 142028Z 34013KT 31/19 A3001 RMK A01 T03070187  RH  049%=      5-min Rain = 0
KJU1 142029Z 33015G20KT 30/19 A3001 RMK A01 T03040187  RH  050%=      5-min Rain = 0
KJU1 142030Z 33011G17KT 30/19 A3001 RMK A01 T03000188  RH  051%=      5-min Rain = 0
KJU1 142031Z 34010KT 30/19 A3001 RMK A01 T02980189  RH  052%=      5-min Rain = 0
KJU1 142032Z 34009KT 30/19 A3001 RMK A01 T02950189  RH  053%=      5-min Rain = 0
KJU1 142033Z 34010KT 29/19 A3002 RMK A01 T02930190  RH  054%=      5-min Rain = 0
KJU1 142034Z 35012G17KT 29/19 A3002 RMK A01 T02920190  RH  054%=      5-min Rain = 0
KJU1 142035Z 35012KT 29/19 A3002 RMK A01 T02910188  RH  054%=      5-min Rain = 0
KJU1 142036Z 00013KT 29/19 A3002 RMK A01 T02890187  RH  054%=      5-min Rain = 0
KJU1 142037Z 35013G18KT 29/19 A3002 RMK A01 T02880186  RH  054%=      5-min Rain = 0
KJU1 142038Z 35011KT 29/19 A3002 RMK A01 T02880187  RH  054%=      5-min Rain = 0
KJU1 142039Z 34013G22KT 29/19 A3003 RMK A01 T02870188  RH  055%=      5-min Rain = 0
KJU1 142040Z 33014G20KT 29/19 A3003 RMK A01 T02850190  RH  056%=      5-min Rain = 0
KJU1 142041Z 33012G18KT 28/19 A3003 RMK A01 T02810190  RH  058%=      5-min Rain = 0
KJU1 142042Z 32009KT 28/19 A3003 RMK A01 T02760189  RH  059%=      5-min Rain = 0
KJU1 142043Z 33009KT 27/19 A3003 RMK A01 T02730191  RH  061%=      5-min Rain = 0
KJU1 142044Z 33015KT 27/20 A3003 RMK A01 T02710196  RH  063%=      5-min Rain = 0
KJU1 142045Z 32010G17KT 27/20 A3004 RMK A01 T02670201  RH  067%=      5-min Rain = 0
KJU1 142046Z 33012KT 26/21 A3004 RMK A01 T02630207  RH  071%=      5-min Rain = 0
KJU1 142047Z 32007KT 26/21 A3004 RMK A01 T02580210  RH  075%=      5-min Rain = 0
KJU1 142048Z 30006KT 25/21 A3004 RMK A01 T02540212  RH  078%=      5-min Rain = 0
KJU1 142049Z 32007G13KT 25/21 A3004 RMK A01 T02510213  RH  079%=      5-min Rain = 0.01
KJU1 142050Z 34005G11KT 25/21 A3004 RMK A01 T02480213  RH  081%=      5-min Rain = 0
KJU1 142051Z 34003KT 25/22 A3004 RMK A01 T02460215  RH  083%=      5-min Rain = 0
KJU1 142052Z 35007G18KT 25/22 A3005 RMK A01 T02460217  RH  084%=      5-min Rain = 0
KJU1 142053Z 34012G18KT 25/22 A3005 RMK A01 T02460216  RH  083%=      5-min Rain = 0.02
KJU1 142054Z 35011KT 25/22 A3005 RMK A01 T02460215  RH  083%=      5-min Rain = 0.01
KJU1 142055Z 34009G14KT 25/22 A3005 RMK A01 T02460216  RH  084%=      5-min Rain = 0.01
KJU1 142056Z 34010KT 25/22 A3006 RMK A01 T02450215  RH  083%=      5-min Rain = 0.02
KJU1 142057Z 00007KT 24/21 A3006 RMK A01 T02440214  RH  084%=      5-min Rain = 0.03
KJU1 142058Z 36009KT 24/22 A3006 RMK A01 T02420216  RH  085%=      5-min Rain = 0.02
KJU1 142059Z 00008KT 24/21 A3006 RMK A01 T02390214  RH  086%=      5-min Rain = 0.04
KJU1 142100Z 34007KT 24/21 A3007 RMK A01 T02380214  RH  087%=      5-min Rain = 0.03
KJU1 142101Z 32004KT 24/22 A3007 RMK A01 T02370215  RH  087%=      5-min Rain = 0.02
KJU1 142102Z 33005KT 24/22 A3007 RMK A01 T02360216  RH  088%=      5-min Rain = 0.03
KJU1 142103Z 32003KT 24/22 A3007 RMK A01 T02360217  RH  089%=      5-min Rain = 0.03
KJU1 142104Z 22003KT 24/22 A3008 RMK A01 T02350217  RH  090%=      5-min Rain = 0.03
KJU1 142105Z 18005KT 23/22 A3008 RMK A01 T02340218  RH  091%=      5-min Rain = 0.03
KJU1 142106Z 20006KT 23/22 A3008 RMK A01 T02340220  RH  092%=      5-min Rain = 0.03
KJU1 142107Z 21007KT 23/22 A3007 RMK A01 T02320220  RH  093%=      5-min Rain = 0.04
KJU1 142108Z 21008KT 23/22 A3007 RMK A01 T02310220  RH  093%=      5-min Rain = 0.03
KJU1 142109Z 19009KT 23/22 A3007 RMK A01 T02310221  RH  094%=      5-min Rain = 0.03
KJU1 142110Z 19010KT 23/22 A3007 RMK A01 T02300221  RH  094%=      5-min Rain = 0.02
KJU1 142111Z 19009KT 23/22 A3007 RMK A01 T02290220  RH  094%=      5-min Rain = 0.02
KJU1 142112Z 19010KT 23/22 A3007 RMK A01 T02290220  RH  094%=      5-min Rain = 0.01
KJU1 142113Z 20007KT 23/22 A3006 RMK A01 T02290219  RH  094%=      5-min Rain = 0.01
KJU1 142114Z 18007KT 23/22 A3006 RMK A01 T02280216  RH  093%=      5-min Rain = 0.02
KJU1 142115Z 17006KT 23/21 A3006 RMK A01 T02270213  RH  092%=      5-min Rain = 0.01
KJU1 142116Z 17009KT 23/21 A3005 RMK A01 T02270209  RH  090%=      5-min Rain = 0.01
KJU1 142117Z 16009KT 23/20 A3005 RMK A01 T02270203  RH  087%=      5-min Rain = 0.01
KJU1 142118Z 15009KT 23/20 A3005 RMK A01 T02280204  RH  086%=      5-min Rain = 0
KJU1 142119Z 14009KT 23/20 A3004 RMK A01 T02280204  RH  086%=      5-min Rain = 0.01
KJU1 142120Z 14010KT 23/20 A3004 RMK A01 T02280204  RH  086%=      5-min Rain = 0
KJU1 142121Z 14010KT 23/20 A3004 RMK A01 T02290202  RH  085%=      5-min Rain = 0
KJU1 142122Z 16008KT 23/20 A3003 RMK A01 T02300202  RH  084%=      5-min Rain = 0
KJU1 142123Z 15007KT 23/21 A3003 RMK A01 T02310205  RH  085%=      5-min Rain = 0
KJU1 142124Z 14009KT 23/21 A3003 RMK A01 T02310207  RH  086%=      5-min Rain = 0
KJU1 142125Z 16009KT 23/21 A3003 RMK A01 T02300205  RH  086%=      5-min Rain = 0
KJU1 142126Z 17008KT 23/20 A3003 RMK A01 T02310202  RH  084%=      5-min Rain = 0
KJU1 142127Z 18008KT 23/20 A3003 RMK A01 T02330202  RH  083%=      5-min Rain = 0
KJU1 142128Z 18007KT 24/20 A3003 RMK A01 T02350204  RH  083%=      5-min Rain = 0
KJU1 142129Z 18006KT 24/21 A3003 RMK A01 T02350206  RH  084%=      5-min Rain = 0
KJU1 142130Z 17007KT 23/21 A3003 RMK A01 T02340209  RH  085%=      5-min Rain = 0
KJU1 142131Z 18008KT 23/21 A3002 RMK A01 T02330209  RH  087%=      5-min Rain = 0
KJU1 142132Z 20007KT 23/21 A3002 RMK A01 T02320211  RH  088%=      5-min Rain = 0
KJU1 142133Z 22007KT 23/21 A3002 RMK A01 T02310212  RH  089%=      5-min Rain = 0
KJU1 142134Z 22009KT 23/21 A3002 RMK A01 T02300211  RH  089%=      5-min Rain = 0
KJU1 142135Z 22008KT 23/21 A3002 RMK A01 T02290210  RH  089%=      5-min Rain = 0
KJU1 142136Z 21009KT 23/21 A3002 RMK A01 T02270209  RH  089%=      5-min Rain = 0
KJU1 142137Z 21008KT 23/21 A3002 RMK A01 T02270209  RH  090%=      5-min Rain = 0
KJU1 142138Z 20008KT 23/21 A3002 RMK A01 T02260209  RH  090%=      5-min Rain = 0
KJU1 142139Z 20006KT 23/21 A3002 RMK A01 T02260208  RH  090%=      5-min Rain = 0
KJU1 142140Z 21007KT 23/21 A3002 RMK A01 T02270210  RH  090%=      5-min Rain = 0
KJU1 142141Z 21007KT 23/21 A3002 RMK A01 T02270210  RH  090%=      5-min Rain = 0
KJU1 142142Z 22006KT 23/21 A3002 RMK A01 T02270210  RH  090%=      5-min Rain = 0
KJU1 142143Z 22005KT 23/21 A3002 RMK A01 T02270211  RH  091%=      5-min Rain = 0
KJU1 142144Z 21006KT 23/21 A3003 RMK A01 T02260211  RH  091%=      5-min Rain = 0
KJU1 142145Z 22005KT 23/21 A3003 RMK A01 T02260211  RH  091%=      5-min Rain = 0
KJU1 142146Z 22004KT 23/21 A3003 RMK A01 T02260211  RH  091%=      5-min Rain = 0
KJU1 142147Z 22005KT 23/21 A3003 RMK A01 T02260212  RH  092%=      5-min Rain = 0.01
KJU1 142148Z 23006KT 23/21 A3003 RMK A01 T02260212  RH  092%=      5-min Rain = 0
KJU1 142149Z 23006KT 23/21 A3003 RMK A01 T02250212  RH  092%=      5-min Rain = 0
KJU1 142150Z 22007KT 23/21 A3003 RMK A01 T02250211  RH  092%=      5-min Rain = 0
KJU1 142151Z 23006KT 23/21 A3003 RMK A01 T02250210  RH  092%=      5-min Rain = 0
KJU1 142152Z 23006KT 23/21 A3003 RMK A01 T02250210  RH  092%=      5-min Rain = 0
KJU1 142153Z 23006KT 23/21 A3003 RMK A01 T02250210  RH  092%=      5-min Rain = 0
KJU1 142154Z 22006KT 23/21 A3003 RMK A01 T02250211  RH  092%=      5-min Rain = 0
KJU1 142155Z 21007KT 23/21 A3003 RMK A01 T02250210  RH  091%=      5-min Rain = 0
KJU1 142156Z 20006KT 23/21 A3003 RMK A01 T02250210  RH  091%=      5-min Rain = 0
KJU1 142157Z 21007KT 23/21 A3003 RMK A01 T02250210  RH  091%=      5-min Rain = 0
KJU1 142158Z 21007KT 23/21 A3003 RMK A01 T02250210  RH  091%=      5-min Rain = 0
KJU1 142159Z 22005KT 23/21 A3003 RMK A01 T02250209  RH  091%=      5-min Rain = 0
KJU1 142200Z 22006KT 23/21 A3003 RMK A01 T02250210  RH  091%=      5-min Rain = 0
KJU1 142201Z 21007KT 23/21 A3003 RMK A01 T02260209  RH  090%=      5-min Rain = 0
KJU1 142202Z 21005KT 23/21 A3003 RMK A01 T02260208  RH  090%=      5-min Rain = 0
KJU1 142203Z 22005KT 23/21 A3003 RMK A01 T02270211  RH  090%=      5-min Rain = 0
KJU1 142204Z 22006KT 23/21 A3003 RMK A01 T02270211  RH  090%=      5-min Rain = 0
KJU1 142205Z 23006KT 23/21 A3003 RMK A01 T02280212  RH  090%=      5-min Rain = 0
KJU1 142206Z 22006KT 23/21 A3003 RMK A01 T02270210  RH  090%=      5-min Rain = 0
KJU1 142207Z 21006KT 23/21 A3003 RMK A01 T02270210  RH  090%=      5-min Rain = 0
KJU1 142208Z 20005KT 23/21 A3003 RMK A01 T02270210  RH  090%=      5-min Rain = 0
KJU1 142209Z 20005KT 23/21 A3003 RMK A01 T02270210  RH  090%=      5-min Rain = 0
KJU1 142210Z 20004KT 23/21 A3003 RMK A01 T02270211  RH  090%=      5-min Rain = 0
KJU1 142211Z 18003KT 23/21 A3002 RMK A01 T02280212  RH  091%=      5-min Rain = 0
KJU1 142212Z 16002KT 23/21 A3002 RMK A01 T02280213  RH  091%=      5-min Rain = 0
KJU1 142213Z 14001KT 23/21 A3002 RMK A01 T02280213  RH  091%=      5-min Rain = 0
KJU1 142214Z 12001KT 23/21 A3003 RMK A01 T02280213  RH  091%=      5-min Rain = 0
KJU1 142215Z 05000KT 23/22 A3003 RMK A01 T02280215  RH  092%=      5-min Rain = 0
KJU1 142216Z 02000KT 23/22 A3003 RMK A01 T02290215  RH  092%=      5-min Rain = 0
KJU1 142217Z 32001KT 23/22 A3003 RMK A01 T02290215  RH  092%=      5-min Rain = 0
KJU1 142218Z 30002KT 23/22 A3003 RMK A01 T02290217  RH  093%=      5-min Rain = 0
KJU1 142219Z 32002KT 23/22 A3003 RMK A01 T02290216  RH  092%=      5-min Rain = 0
KJU1 142220Z 01002KT 23/22 A3003 RMK A01 T02280215  RH  092%=      5-min Rain = 0
KJU1 142221Z 35002KT 23/22 A3003 RMK A01 T02280216  RH  092%=      5-min Rain = 0
KJU1 142222Z 33002KT 23/22 A3003 RMK A01 T02290216  RH  093%=      5-min Rain = 0
KJU1 142223Z 33002KT 23/22 A3002 RMK A01 T02290216  RH  092%=      5-min Rain = 0
KJU1 142224Z 32002KT 23/22 A3002 RMK A01 T02290216  RH  092%=      5-min Rain = 0
KJU1 142225Z 29002KT 23/22 A3002 RMK A01 T02290216  RH  092%=      5-min Rain = 0
KJU1 142226Z 23001KT 23/21 A3002 RMK A01 T02300214  RH  091%=      5-min Rain = 0
KJU1 142227Z 18002KT 23/21 A3002 RMK A01 T02300210  RH  089%=      5-min Rain = 0
KJU1 142228Z 18004KT 23/21 A3002 RMK A01 T02300208  RH  087%=      5-min Rain = 0
KJU1 142229Z 17004KT 23/21 A3002 RMK A01 T02330207  RH  085%=      5-min Rain = 0
KJU1 142230Z 17003KT 24/21 A3002 RMK A01 T02350209  RH  085%=      5-min Rain = 0
KJU1 142231Z 18001KT 24/21 A3002 RMK A01 T02370210  RH  085%=      5-min Rain = 0
KJU1 142232Z 00000KT 24/21 A3002 RMK A01 T02370212  RH  086%=      5-min Rain = 0
KJU1 142233Z 26001KT 24/21 A3002 RMK A01 T02370213  RH  087%=      5-min Rain = 0
KJU1 142234Z 25001KT 24/22 A3002 RMK A01 T02360215  RH  088%=      5-min Rain = 0
KJU1 142235Z 28001KT 24/22 A3002 RMK A01 T02370216  RH  088%=      5-min Rain = 0
KJU1 142236Z 27001KT 24/21 A3002 RMK A01 T02360213  RH  087%=      5-min Rain = 0
KJU1 142237Z 28002KT 24/22 A3002 RMK A01 T02350215  RH  088%=      5-min Rain = 0
KJU1 142238Z 28003KT 24/22 A3002 RMK A01 T02350216  RH  089%=      5-min Rain = 0
KJU1 142239Z 28002KT 24/22 A3002 RMK A01 T02350218  RH  090%=      5-min Rain = 0
KJU1 142240Z 27002KT 24/22 A3002 RMK A01 T02360221  RH  091%=      5-min Rain = 0
KJU1 142241Z 25002KT 24/22 A3002 RMK A01 T02350221  RH  092%=      5-min Rain = 0
KJU1 142242Z 25002KT 23/22 A3002 RMK A01 T02340219  RH  091%=      5-min Rain = 0
KJU1 142243Z 25002KT 23/22 A3002 RMK A01 T02340218  RH  091%=      5-min Rain = 0
KJU1 142244Z 25003KT 23/22 A3002 RMK A01 T02330219  RH  092%=      5-min Rain = 0
KJU1 142245Z 26002KT 23/22 A3002 RMK A01 T02330220  RH  092%=      5-min Rain = 0
KJU1 142246Z 26002KT 23/22 A3002 RMK A01 T02330219  RH  092%=      5-min Rain = 0
KJU1 142247Z 25001KT 23/22 A3002 RMK A01 T02320219  RH  092%=      5-min Rain = 0
KJU1 142248Z 23001KT 23/22 A3002 RMK A01 T02330221  RH  093%=      5-min Rain = 0
KJU1 142249Z 23002KT 23/22 A3002 RMK A01 T02330220  RH  092%=      5-min Rain = 0
KJU1 142250Z 22003KT 23/22 A3002 RMK A01 T02330220  RH  092%=      5-min Rain = 0
KJU1 142251Z 21003KT 23/22 A3002 RMK A01 T02330220  RH  093%=      5-min Rain = 0
KJU1 142252Z 22003KT 23/22 A3002 RMK A01 T02330221  RH  093%=      5-min Rain = 0
KJU1 142253Z 22003KT 23/22 A3002 RMK A01 T02330222  RH  093%=      5-min Rain = 0
KJU1 142254Z 22003KT 23/22 A3002 RMK A01 T02330221  RH  093%=      5-min Rain = 0
KJU1 142255Z 22003KT 23/22 A3002 RMK A01 T02330220  RH  092%=      5-min Rain = 0
KJU1 142256Z 23003KT 23/22 A3002 RMK A01 T02330219  RH  092%=      5-min Rain = 0
KJU1 142257Z 23003KT 23/22 A3002 RMK A01 T02330220  RH  092%=      5-min Rain = 0
KJU1 142258Z 24003KT 23/22 A3002 RMK A01 T02330219  RH  092%=      5-min Rain = 0
KJU1 142259Z 24002KT 23/22 A3002 RMK A01 T02340219  RH  091%=      5-min Rain = 0
KJU1 142300Z 26002KT 23/22 A3003 RMK A01 T02330218  RH  091%=      5-min Rain = 0
KJU1 142301Z 25001KT 23/22 A3003 RMK A01 T02340220  RH  092%=      5-min Rain = 0
KJU1 142302Z 24000KT 24/22 A3003 RMK A01 T02350221  RH  092%=      5-min Rain = 0
KJU1 142303Z 32001KT 24/22 A3003 RMK A01 T02350220  RH  091%=      5-min Rain = 0
KJU1 142304Z 32001KT 23/22 A3003 RMK A01 T02340219  RH  091%=      5-min Rain = 0
KJU1 142305Z 31001KT 23/22 A3003 RMK A01 T02340218  RH  091%=      5-min Rain = 0.01
KJU1 142306Z 30001KT 24/22 A3003 RMK A01 T02350219  RH  091%=      5-min Rain = 0
KJU1 142307Z 27001KT 24/22 A3003 RMK A01 T02350220  RH  091%=      5-min Rain = 0
KJU1 142308Z 24000KT 24/22 A3003 RMK A01 T02360219  RH  090%=      5-min Rain = 0
KJU1 142309Z 16000KT 24/22 A3003 RMK A01 T02360219  RH  090%=      5-min Rain = 0
KJU1 142310Z 18001KT 24/22 A3002 RMK A01 T02360218  RH  090%=      5-min Rain = 0
KJU1 142311Z 19002KT 24/22 A3002 RMK A01 T02360216  RH  089%=      5-min Rain = 0
KJU1 142312Z 18003KT 24/21 A3002 RMK A01 T02360214  RH  088%=      5-min Rain = 0
KJU1 142313Z 19003KT 24/21 A3002 RMK A01 T02370214  RH  087%=      5-min Rain = 0
KJU1 142314Z 15003KT 24/22 A3002 RMK A01 T02390220  RH  089%=      5-min Rain = 0
KJU1 142315Z 18003KT 24/22 A3002 RMK A01 T02400220  RH  089%=      5-min Rain = 0
KJU1 142316Z 21001KT 24/22 A3002 RMK A01 T02390220  RH  089%=      5-min Rain = 0
KJU1 142317Z 26002KT 24/22 A3002 RMK A01 T02390220  RH  089%=      5-min Rain = 0
KJU1 142318Z 27002KT 24/22 A3002 RMK A01 T02380221  RH  090%=      5-min Rain = 0
KJU1 142319Z 28003KT 24/22 A3002 RMK A01 T02380223  RH  091%=      5-min Rain = 0
KJU1 142320Z 28004KT 24/22 A3002 RMK A01 T02370223  RH  092%=      5-min Rain = 0
KJU1 142321Z 28003KT 24/22 A3002 RMK A01 T02360223  RH  092%=      5-min Rain = 0
KJU1 142322Z 28003KT 24/22 A3002 RMK A01 T02360224  RH  093%=      5-min Rain = 0
KJU1 142323Z 28002KT 24/22 A3002 RMK A01 T02360224  RH  093%=      5-min Rain = 0
KJU1 142324Z 29001KT 24/22 A3001 RMK A01 T02350222  RH  092%=      5-min Rain = 0.01
KJU1 142325Z 17000KT 23/22 A3001 RMK A01 T02340220  RH  092%=      5-min Rain = 0
KJU1 142326Z 19001KT 23/22 A3001 RMK A01 T02340221  RH  092%=      5-min Rain = 0
KJU1 142327Z 18002KT 23/22 A3001 RMK A01 T02340218  RH  091%=      5-min Rain = 0
KJU1 142328Z 16002KT 24/22 A3001 RMK A01 T02350220  RH  091%=      5-min Rain = 0
KJU1 142329Z 18001KT 24/22 A3001 RMK A01 T02370222  RH  091%=      5-min Rain = 0
KJU1 142330Z 18002KT 24/23 A3001 RMK A01 T02380225  RH  092%=      5-min Rain = 0
KJU1 142331Z 19001KT 24/23 A3001 RMK A01 T02390227  RH  093%=      5-min Rain = 0
KJU1 142332Z 18002KT 24/23 A3001 RMK A01 T02390227  RH  093%=      5-min Rain = 0
KJU1 142333Z 18002KT 24/23 A3001 RMK A01 T02390227  RH  093%=      5-min Rain = 0
KJU1 142334Z 19002KT 24/23 A3001 RMK A01 T02380225  RH  092%=      5-min Rain = 0
KJU1 142335Z 17001KT 24/22 A3001 RMK A01 T02370224  RH  092%=      5-min Rain = 0
KJU1 142336Z 17001KT 24/22 A3001 RMK A01 T02370223  RH  092%=      5-min Rain = 0
KJU1 142337Z 18001KT 24/22 A3001 RMK A01 T02370223  RH  092%=      5-min Rain = 0
KJU1 142338Z 23001KT 24/22 A30 RMK A01 T02370224  RH  092%=      5-min Rain = 0
KJU1 142339Z 22000KT 24/23 A30 RMK A01 T02370225  RH  093%=      5-min Rain = 0
KJU1 142340Z 00000KT 24/23 A30 RMK A01 T02380225  RH  093%=      5-min Rain = 0
KJU1 142341Z 00000KT 24/23 A30 RMK A01 T02380226  RH  093%=      5-min Rain = 0
KJU1 142342Z 00000KT 24/23 A30 RMK A01 T02390226  RH  093%=      5-min Rain = 0
KJU1 142343Z 00000KT 24/23 A30 RMK A01 T02380225  RH  092%=      5-min Rain = 0
KJU1 142344Z 00000KT 24/22 A30 RMK A01 T02380223  RH  091%=      5-min Rain = 0
KJU1 142345Z 31000KT 24/22 A30 RMK A01 T02380223  RH  091%=      5-min Rain = 0
KJU1 142346Z 34000KT 24/22 A30 RMK A01 T02380224  RH  092%=      5-min Rain = 0
KJU1 142347Z 33000KT 24/23 A30 RMK A01 T02390225  RH  092%=      5-min Rain = 0
KJU1 142348Z 00000KT 24/22 A30 RMK A01 T02390224  RH  092%=      5-min Rain = 0
KJU1 142349Z 02001KT 24/23 A30 RMK A01 T02390225  RH  091%=      5-min Rain = 0
KJU1 142350Z 00001KT 24/23 A30 RMK A01 T02400225  RH  091%=      5-min Rain = 0
KJU1 142351Z 34001KT 24/23 A30 RMK A01 T02400226  RH  092%=      5-min Rain = 0
KJU1 142352Z 34001KT 24/23 A3001 RMK A01 T02400228  RH  093%=      5-min Rain = 0
KJU1 142353Z 33002KT 24/23 A3001 RMK A01 T02410229  RH  093%=      5-min Rain = 0
KJU1 142354Z 35003KT 24/23 A3001 RMK A01 T02410228  RH  093%=      5-min Rain = 0
KJU1 142355Z 35003KT 24/23 A3001 RMK A01 T02410228  RH  093%=      5-min Rain = 0
KJU1 142356Z 35003KT 24/23 A3001 RMK A01 T02410231  RH  094%=      5-min Rain = 0
KJU1 142357Z 33003KT 24/23 A3001 RMK A01 T02410231  RH  094%=      5-min Rain = 0
KJU1 142358Z 26002KT 24/23 A3001 RMK A01 T02400230  RH  094%=      5-min Rain = 0
KJU1 142359Z 24002KT 24/23 A3001 RMK A01 T02390226  RH  092%=      5-min Rain = 0
KJU1 150000Z 24002KT 24/22 A3001 RMK A01 T02390222  RH  091%=      5-min Rain = 0
KJU1 150001Z 22003KT 24/22 A3001 RMK A01 T02390223  RH  091%=      5-min Rain = 0
KJU1 150002Z 23002KT 24/22 A3001 RMK A01 T02400220  RH  089%=      5-min Rain = 0
KJU1 150003Z 26003KT 24/22 A3001 RMK A01 T02410224  RH  090%=      5-min Rain = 0
KJU1 150004Z 25003KT 24/22 A3001 RMK A01 T02420224  RH  090%=      5-min Rain = 0
KJU1 150005Z 25003KT 24/22 A3001 RMK A01 T02420224  RH  090%=      5-min Rain = 0
KJU1 150006Z 26001KT 24/23 A3001 RMK A01 T02410225  RH  091%=      5-min Rain = 0
KJU1 150007Z 27001KT 24/23 A3001 RMK A01 T02410225  RH  091%=      5-min Rain = 0
KJU1 150008Z 23001KT 24/23 A3001 RMK A01 T02410225  RH  091%=      5-min Rain = 0
KJU1 150009Z 24001KT 24/23 A3001 RMK A01 T02410227  RH  092%=      5-min Rain = 0
KJU1 150010Z 25001KT 24/23 A3001 RMK A01 T02410226  RH  092%=      5-min Rain = 0
KJU1 150011Z 28001KT 24/23 A3001 RMK A01 T02410225  RH  091%=      5-min Rain = 0
KJU1 150012Z 29001KT 24/23 A3001 RMK A01 T02410226  RH  092%=      5-min Rain = 0
KJU1 150013Z 29001KT 24/23 A3001 RMK A01 T02410229  RH  093%=      5-min Rain = 0
KJU1 150014Z 30001KT 24/23 A3001 RMK A01 T02420230  RH  093%=      5-min Rain = 0
KJU1 150015Z 27000KT 24/23 A3001 RMK A01 T02420230  RH  093%=      5-min Rain = 0
KJU1 150016Z 27001KT 24/23 A3001 RMK A01 T02420230  RH  093%=      5-min Rain = 0
KJU1 150017Z 23000KT 24/23 A3001 RMK A01 T02420230  RH  093%=      5-min Rain = 0
KJU1 150018Z 20001KT 24/23 A3001 RMK A01 T02420226  RH  091%=      5-min Rain = 0
KJU1 150019Z 16001KT 24/23 A3001 RMK A01 T02410225  RH  091%=      5-min Rain = 0
KJU1 150020Z 15001KT 24/23 A3001 RMK A01 T02410225  RH  091%=      5-min Rain = 0
KJU1 150021Z 17002KT 24/23 A3001 RMK A01 T02420227  RH  091%=      5-min Rain = 0
KJU1 150022Z 18002KT 24/23 A3001 RMK A01 T02430227  RH  091%=      5-min Rain = 0
KJU1 150023Z 19002KT 24/23 A3001 RMK A01 T02430227  RH  091%=      5-min Rain = 0
KJU1 150024Z 18003KT 24/23 A3001 RMK A01 T02430228  RH  091%=      5-min Rain = 0
KJU1 150025Z 19002KT 24/23 A3001 RMK A01 T02430227  RH  091%=      5-min Rain = 0
KJU1 150026Z 17002KT 24/23 A3001 RMK A01 T02430227  RH  091%=      5-min Rain = 0
KJU1 150027Z 15002KT 24/23 A3001 RMK A01 T02440229  RH  091%=      5-min Rain = 0
KJU1 150028Z 13003KT 24/23 A3001 RMK A01 T02440229  RH  091%=      5-min Rain = 0
KJU1 150029Z 13003KT 24/23 A3001 RMK A01 T02440230  RH  092%=      5-min Rain = 0
KJU1 150030Z 13002KT 24/23 A3001 RMK A01 T02440231  RH  092%=      5-min Rain = 0
KJU1 150031Z 13002KT 24/23 A3001 RMK A01 T02440231  RH  093%=      5-min Rain = 0
KJU1 150032Z 11002KT 24/23 A3001 RMK A01 T02440231  RH  093%=      5-min Rain = 0
KJU1 150033Z 11002KT 24/23 A3001 RMK A01 T02440232  RH  093%=      5-min Rain = 0
KJU1 150034Z 09001KT 24/23 A3001 RMK A01 T02440232  RH  093%=      5-min Rain = 0
KJU1 150035Z 08001KT 24/23 A3001 RMK A01 T02430231  RH  093%=      5-min Rain = 0
KJU1 150036Z 09001KT 24/23 A3001 RMK A01 T02430232  RH  093%=      5-min Rain = 0
KJU1 150037Z 00000KT 24/23 A3001 RMK A01 T02430232  RH  093%=      5-min Rain = 0
KJU1 150038Z 00000KT 24/23 A3001 RMK A01 T02430231  RH  093%=      5-min Rain = 0
KJU1 150039Z 00000KT 24/23 A3001 RMK A01 T02430231  RH  093%=      5-min Rain = 0
KJU1 150040Z 13001KT 24/23 A3001 RMK A01 T02430230  RH  093%=      5-min Rain = 0
KJU1 150041Z 14001KT 24/23 A3001 RMK A01 T02430229  RH  092%=      5-min Rain = 0
KJU1 150042Z 14002KT 24/23 A3001 RMK A01 T02430229  RH  092%=      5-min Rain = 0
KJU1 150043Z 14002KT 24/23 A3001 RMK A01 T02430228  RH  092%=      5-min Rain = 0
KJU1 150044Z 14002KT 24/23 A3001 RMK A01 T02430228  RH  092%=      5-min Rain = 0
KJU1 150045Z 14002KT 24/23 A3001 RMK A01 T02430229  RH  092%=      5-min Rain = 0
KJU1 150046Z 14002KT 24/23 A3001 RMK A01 T02430229  RH  092%=      5-min Rain = 0
KJU1 150047Z 14002KT 24/23 A3001 RMK A01 T02430230  RH  092%=      5-min Rain = 0
KJU1 150048Z 14001KT 24/23 A3002 RMK A01 T02430230  RH  092%=      5-min Rain = 0
KJU1 150049Z 14001KT 24/23 A3001 RMK A01 T02430230  RH  092%=      5-min Rain = 0
KJU1 150050Z 14001KT 24/23 A3001 RMK A01 T02430230  RH  093%=      5-min Rain = 0
KJU1 150051Z 14001KT 24/23 A3002 RMK A01 T02430229  RH  092%=      5-min Rain = 0
KJU1 150052Z 16001KT 24/23 A3002 RMK A01 T02430230  RH  093%=      5-min Rain = 0
KJU1 150053Z 16001KT 24/23 A3002 RMK A01 T02430231  RH  093%=      5-min Rain = 0
KJU1 150054Z 17001KT 24/23 A3002 RMK A01 T02430231  RH  093%=      5-min Rain = 0
KJU1 150055Z 18001KT 24/23 A3002 RMK A01 T02440232  RH  093%=      5-min Rain = 0
KJU1 150056Z 18001KT 24/23 A3002 RMK A01 T02430231  RH  093%=      5-min Rain = 0
KJU1 150057Z 20001KT 24/23 A3002 RMK A01 T02430231  RH  093%=      5-min Rain = 0
KJU1 150058Z 20001KT 24/23 A3002 RMK A01 T02430231  RH  093%=      5-min Rain = 0
KJU1 150059Z 20002KT 24/23 A3002 RMK A01 T02430233  RH  094%=      5-min Rain = 0
KJU1 150100Z 20001KT 24/23 A3002 RMK A01 T02430234  RH  094%=      5-min Rain = 0
KJU1 150101Z 20001KT 24/23 A3002 RMK A01 T02430234  RH  094%=      5-min Rain = 0
KJU1 150102Z 19000KT 24/23 A3002 RMK A01 T02440234  RH  094%=      5-min Rain = 0
KJU1 150103Z 00000KT 24/24 A3002 RMK A01 T02430235  RH  095%=      5-min Rain = 0
KJU1 150104Z 00000KT 24/24 A3002 RMK A01 T02440235  RH  095%=      5-min Rain = 0
KJU1 150105Z 00000KT 24/24 A3002 RMK A01 T02440235  RH  095%=      5-min Rain = 0
KJU1 150106Z 00000KT 24/24 A3002 RMK A01 T02440235  RH  095%=      5-min Rain = 0
KJU1 150107Z 00000KT 24/24 A3002 RMK A01 T02440235  RH  095%=      5-min Rain = 0
KJU1 150108Z 00000KT 24/24 A3002 RMK A01 T02440235  RH  095%=      5-min Rain = 0
KJU1 150109Z 00000KT 24/23 A3002 RMK A01 T02430234  RH  095%=      5-min Rain = 0
KJU1 150110Z 13001KT 24/23 A3002 RMK A01 T02430234  RH  094%=      5-min Rain = 0
KJU1 150111Z 11002KT 24/23 A3002 RMK A01 T02430232  RH  094%=      5-min Rain = 0
KJU1 150112Z 12002KT 24/23 A3002 RMK A01 T02420231  RH  094%=      5-min Rain = 0
KJU1 150113Z 13002KT 24/23 A3002 RMK A01 T02420231  RH  094%=      5-min Rain = 0
KJU1 150114Z 13002KT 24/23 A3002 RMK A01 T02420232  RH  094%=      5-min Rain = 0
KJU1 150115Z 13002KT 24/23 A3002 RMK A01 T02420231  RH  094%=      5-min Rain = 0
KJU1 150116Z 13002KT 24/23 A3002 RMK A01 T02420232  RH  094%=      5-min Rain = 0
KJU1 150117Z 14001KT 24/23 A3002 RMK A01 T02420232  RH  094%=      5-min Rain = 0
KJU1 150118Z 15001KT 24/23 A3002 RMK A01 T02420233  RH  094%=      5-min Rain = 0
KJU1 150119Z 15001KT 24/23 A3002 RMK A01 T02420233  RH  095%=      5-min Rain = 0
KJU1 150120Z 15001KT 24/23 A3001 RMK A01 T02420233  RH  095%=      5-min Rain = 0
KJU1 150121Z 18001KT 24/23 A3001 RMK A01 T02420233  RH  095%=      5-min Rain = 0
KJU1 150122Z 23001KT 24/23 A3001 RMK A01 T02420233  RH  095%=      5-min Rain = 0
KJU1 150123Z 23001KT 24/23 A3001 RMK A01 T02420233  RH  095%=      5-min Rain = 0
KJU1 150124Z 24001KT 24/23 A3002 RMK A01 T02420233  RH  095%=      5-min Rain = 0
KJU1 150125Z 24001KT 24/23 A3002 RMK A01 T02410233  RH  095%=      5-min Rain = 0
KJU1 150126Z 23002KT 24/23 A3002 RMK A01 T02400232  RH  095%=      5-min Rain = 0
KJU1 150127Z 23002KT 24/23 A3001 RMK A01 T02400233  RH  095%=      5-min Rain = 0
KJU1 150128Z 23003KT 24/23 A3001 RMK A01 T02400233  RH  096%=      5-min Rain = 0
KJU1 150129Z 23002KT 24/23 A3001 RMK A01 T02400233  RH  096%=      5-min Rain = 0
KJU1 150130Z 23003KT 24/23 A3001 RMK A01 T02400234  RH  096%=      5-min Rain = 0
KJU1 150131Z 23003KT 24/23 A3001 RMK A01 T02400234  RH  096%=      5-min Rain = 0
KJU1 150132Z 23002KT 24/23 A3001 RMK A01 T02400234  RH  096%=      5-min Rain = 0
KJU1 150133Z 23002KT 24/24 A3001 RMK A01 T02400235  RH  097%=      5-min Rain = 0
KJU1 150134Z 23002KT 24/24 A3001 RMK A01 T02400235  RH  097%=      5-min Rain = 0
KJU1 150135Z 23002KT 24/24 A3002 RMK A01 T02400235  RH  097%=      5-min Rain = 0
KJU1 150136Z 23002KT 24/24 A3002 RMK A01 T02400235  RH  097%=      5-min Rain = 0
KJU1 150137Z 23002KT 24/24 A3002 RMK A01 T02400236  RH  097%=      5-min Rain = 0
KJU1 150138Z 23002KT 24/24 A3002 RMK A01 T02400236  RH  097%=      5-min Rain = 0
KJU1 150139Z 22003KT 24/24 A3002 RMK A01 T02400236  RH  097%=      5-min Rain = 0
KJU1 150140Z 22003KT 24/24 A3002 RMK A01 T02400236  RH  097%=      5-min Rain = 0
KJU1 150141Z 21002KT 24/24 A3002 RMK A01 T02400236  RH  098%=      5-min Rain = 0
KJU1 150142Z 19002KT 24/24 A3002 RMK A01 T02400235  RH  098%=      5-min Rain = 0
KJU1 150143Z 18003KT 24/24 A3001 RMK A01 T02390235  RH  098%=      5-min Rain = 0
KJU1 150144Z 18003KT 24/24 A3001 RMK A01 T02390235  RH  098%=      5-min Rain = 0
KJU1 150145Z 18003KT 24/24 A3001 RMK A01 T02390236  RH  098%=      5-min Rain = 0
KJU1 150146Z 19003KT 24/24 A3001 RMK A01 T02390236  RH  098%=      5-min Rain = 0
KJU1 150147Z 18003KT 24/24 A3001 RMK A01 T02390236  RH  098%=      5-min Rain = 0
KJU1 150148Z 17002KT 24/24 A3001 RMK A01 T02390236  RH  098%=      5-min Rain = 0
KJU1 150149Z 17002KT 24/24 A3001 RMK A01 T02400236  RH  098%=      5-min Rain = 0
KJU1 150150Z 16002KT 24/24 A3002 RMK A01 T02390235  RH  098%=      5-min Rain = 0
KJU1 150151Z 16002KT 24/24 A3002 RMK A01 T02390235  RH  098%=      5-min Rain = 0
KJU1 150152Z 17002KT 24/24 A3002 RMK A01 T02390236  RH  098%=      5-min Rain = 0
KJU1 150153Z 18002KT 24/24 A3002 RMK A01 T02390236  RH  098%=      5-min Rain = 0
KJU1 150154Z 18002KT 24/24 A3002 RMK A01 T02390235  RH  098%=      5-min Rain = 0
KJU1 150155Z 17002KT 24/24 A3002 RMK A01 T02390235  RH  098%=      5-min Rain = 0
KJU1 150156Z 18002KT 24/24 A3002 RMK A01 T02390235  RH  098%=      5-min Rain = 0
KJU1 150157Z 18001KT 24/24 A3002 RMK A01 T02380235  RH  098%=      5-min Rain = 0
KJU1 150158Z 18001KT 24/24 A3002 RMK A01 T02380235  RH  098%=      5-min Rain = 0
KJU1 150159Z 19001KT 24/24 A3002 RMK A01 T02380235  RH  098%=      5-min Rain = 0
KJU1 150200Z 20002KT 24/24 A3002 RMK A01 T02380235  RH  098%=      5-min Rain = 0
KJU1 150201Z 21002KT 24/23 A3002 RMK A01 T02380234  RH  098%=      5-min Rain = 0
KJU1 150202Z 22002KT 24/24 A3002 RMK A01 T02380235  RH  098%=      5-min Rain = 0
KJU1 150203Z 23002KT 24/24 A3002 RMK A01 T02380235  RH  098%=      5-min Rain = 0
KJU1 150204Z 24002KT 24/24 A3002 RMK A01 T02380235  RH  098%=      5-min Rain = 0
KJU1 150205Z 24001KT 24/24 A3002 RMK A01 T02380235  RH  098%=      5-min Rain = 0
KJU1 150206Z 24001KT 24/24 A3002 RMK A01 T02380235  RH  098%=      5-min Rain = 0
KJU1 150207Z 24001KT 24/24 A3003 RMK A01 T02380235  RH  098%=      5-min Rain = 0
KJU1 150208Z 25001KT 24/24 A3003 RMK A01 T02380235  RH  098%=      5-min Rain = 0
KJU1 150209Z 23001KT 24/24 A3003 RMK A01 T02380235  RH  098%=      5-min Rain = 0
KJU1 150210Z 25002KT 24/24 A3003 RMK A01 T02380235  RH  098%=      5-min Rain = 0
KJU1 150211Z 26002KT 24/23 A3003 RMK A01 T02370234  RH  098%=      5-min Rain = 0
KJU1 150212Z 27002KT 24/24 A3003 RMK A01 T02380235  RH  098%=      5-min Rain = 0
KJU1 150213Z 26001KT 24/24 A3003 RMK A01 T02370235  RH  098%=      5-min Rain = 0
KJU1 150214Z 26001KT 24/24 A3003 RMK A01 T02380235  RH  098%=      5-min Rain = 0
KJU1 150215Z 25001KT 24/24 A3003 RMK A01 T02380235  RH  099%=      5-min Rain = 0
KJU1 150216Z 23002KT 24/24 A3003 RMK A01 T02380236  RH  099%=      5-min Rain = 0
KJU1 150217Z 21001KT 24/24 A3003 RMK A01 T02380236  RH  099%=      5-min Rain = 0
KJU1 150218Z 19002KT 24/24 A3003 RMK A01 T02380236  RH  099%=      5-min Rain = 0
KJU1 150219Z 17002KT 24/24 A3003 RMK A01 T02380236  RH  099%=      5-min Rain = 0
KJU1 150220Z 17002KT 24/24 A3003 RMK A01 T02380236  RH  099%=      5-min Rain = 0
KJU1 150221Z 16002KT 24/24 A3003 RMK A01 T02380236  RH  099%=      5-min Rain = 0
KJU1 150222Z 14002KT 24/24 A3003 RMK A01 T02380236  RH  099%=      5-min Rain = 0
KJU1 150223Z 13002KT 24/24 A3003 RMK A01 T02370235  RH  099%=      5-min Rain = 0
KJU1 150224Z 13002KT 24/24 A3003 RMK A01 T02370235  RH  099%=      5-min Rain = 0
KJU1 150225Z 12002KT 24/24 A3004 RMK A01 T02370235  RH  099%=      5-min Rain = 0
KJU1 150226Z 12002KT 24/24 A3004 RMK A01 T02370235  RH  099%=      5-min Rain = 0
KJU1 150227Z 12003KT 24/24 A3004 RMK A01 T02360235  RH  099%=      5-min Rain = 0
KJU1 150228Z 12003KT 24/23 A3004 RMK A01 T02360234  RH  099%=      5-min Rain = 0
KJU1 150229Z 12004KT 24/23 A3004 RMK A01 T02360234  RH  099%=      5-min Rain = 0
KJU1 150230Z 12004KT 24/23 A3004 RMK A01 T02350234  RH  099%=      5-min Rain = 0
KJU1 150231Z 13003KT 24/23 A3004 RMK A01 T02350234  RH  099%=      5-min Rain = 0
KJU1 150232Z 13003KT 24/23 A3004 RMK A01 T02350234  RH  099%=      5-min Rain = 0
KJU1 150233Z 13003KT 24/23 A3004 RMK A01 T02350234  RH  099%=      5-min Rain = 0
KJU1 150234Z 12003KT 24/23 A3004 RMK A01 T02350234  RH  099%=      5-min Rain = 0
KJU1 150235Z 11002KT 24/23 A3004 RMK A01 T02350234  RH  099%=      5-min Rain = 0
KJU1 150236Z 10002KT 24/23 A3004 RMK A01 T02350234  RH  099%=      5-min Rain = 0
KJU1 150237Z 08001KT 24/23 A3004 RMK A01 T02350234  RH  099%=      5-min Rain = 0
KJU1 150238Z 07001KT 24/23 A3004 RMK A01 T02350234  RH  099%=      5-min Rain = 0
KJU1 150239Z 07001KT 24/23 A3004 RMK A01 T02360234  RH  099%=      5-min Rain = 0
KJU1 150240Z 07001KT 24/24 A3004 RMK A01 T02360235  RH  099%=      5-min Rain = 0
KJU1 150241Z 06001KT 24/24 A3004 RMK A01 T02360235  RH  099%=      5-min Rain = 0
KJU1 150242Z 04001KT 24/24 A3004 RMK A01 T02360235  RH  099%=      5-min Rain = 0
KJU1 150243Z 02001KT 24/24 A3004 RMK A01 T02370236  RH  099%=      5-min Rain = 0
KJU1 150244Z 34001KT 24/24 A3004 RMK A01 T02370236  RH  099%=      5-min Rain = 0
KJU1 150245Z 31001KT 24/24 A3004 RMK A01 T02370235  RH  099%=      5-min Rain = 0
KJU1 150246Z 30001KT 24/24 A3004 RMK A01 T02370235  RH  099%=      5-min Rain = 0
KJU1 150247Z 30002KT 24/24 A3004 RMK A01 T02370236  RH  099%=      5-min Rain = 0
KJU1 150248Z 31002KT 24/24 A3004 RMK A01 T02370236  RH  099%=      5-min Rain = 0
KJU1 150249Z 31001KT 24/24 A3004 RMK A01 T02370236  RH  099%=      5-min Rain = 0
KJU1 150250Z 31000KT 24/24 A3004 RMK A01 T02370236  RH  099%=      5-min Rain = 0
KJU1 150251Z 00000KT 24/24 A3004 RMK A01 T02370236  RH  099%=      5-min Rain = 0
KJU1 150252Z 13001KT 24/24 A3004 RMK A01 T02370236  RH  099%=      5-min Rain = 0
KJU1 150253Z 14001KT 24/24 A3004 RMK A01 T02370236  RH  099%=      5-min Rain = 0
KJU1 150254Z 15001KT 24/24 A3004 RMK A01 T02370236  RH  099%=      5-min Rain = 0
KJU1 150255Z 15001KT 24/24 A3004 RMK A01 T02370236  RH  099%=      5-min Rain = 0
KJU1 150256Z 15000KT 24/24 A3004 RMK A01 T02370236  RH  099%=      5-min Rain = 0
KJU1 150257Z 00000KT 24/24 A3004 RMK A01 T02370236  RH  099%=      5-min Rain = 0
KJU1 150258Z 00000KT 24/24 A3005 RMK A01 T02370236  RH  099%=      5-min Rain = 0
KJU1 150259Z 00000KT 24/24 A3005 RMK A01 T02370236  RH  099%=      5-min Rain = 0
KJU1 150300Z 26001KT 24/24 A3005 RMK A01 T02370236  RH  099%=      5-min Rain = 0
KJU1 150301Z 26001KT 24/24 A3005 RMK A01 T02360236  RH  099%=      5-min Rain = 0
KJU1 150302Z 23002KT 24/24 A3005 RMK A01 T02360235  RH  099%=      5-min Rain = 0
KJU1 150303Z 23002KT 24/24 A3005 RMK A01 T02360235  RH  099%=      5-min Rain = 0
KJU1 150304Z 22001KT 24/23 A3005 RMK A01 T02350234  RH  099%=      5-min Rain = 0
KJU1 150305Z 22001KT 24/23 A3005 RMK A01 T02350234  RH  099%=      5-min Rain = 0
KJU1 150306Z 21002KT 24/23 A3005 RMK A01 T02350234  RH  099%=      5-min Rain = 0
KJU1 150307Z 21001KT 24/24 A3005 RMK A01 T02350235  RH  100%=      5-min Rain = 0
KJU1 150308Z 20001KT 24/24 A3004 RMK A01 T02350235  RH  100%=      5-min Rain = 0
KJU1 150309Z 20000KT 24/24 A3004 RMK A01 T02350235  RH  100%=      5-min Rain = 0
KJU1 150310Z 21000KT 24/24 A3005 RMK A01 T02350235  RH  100%=      5-min Rain = 0
KJU1 150311Z 20001KT 24/24 A3005 RMK A01 T02350235  RH  100%=      5-min Rain = 0
KJU1 150312Z 21001KT 24/24 A3005 RMK A01 T02350235  RH  100%=      5-min Rain = 0
KJU1 150313Z 20001KT 24/24 A3005 RMK A01 T02350235  RH  100%=      5-min Rain = 0
KJU1 150314Z 20001KT 24/24 A3004 RMK A01 T02350235  RH  100%=      5-min Rain = 0
KJU1 150315Z 20002KT 24/24 A3005 RMK A01 T02350235  RH  100%=      5-min Rain = 0
KJU1 150316Z 20002KT 24/24 A3004 RMK A01 T02350235  RH  100%=      5-min Rain = 0
KJU1 150317Z 21002KT 24/24 A3004 RMK A01 T02350235  RH  100%=      5-min Rain = 0
KJU1 150318Z 20002KT 24/24 A3004 RMK A01 T02350235  RH  100%=      5-min Rain = 0
KJU1 150319Z 20001KT 24/24 A3005 RMK A01 T02360235  RH  100%=      5-min Rain = 0
KJU1 150320Z 20001KT 24/24 A3005 RMK A01 T02350236  RH  100%=      5-min Rain = 0
KJU1 150321Z 20001KT 24/24 A3005 RMK A01 T02350235  RH  100%=      5-min Rain = 0
KJU1 150322Z 20000KT 24/24 A3005 RMK A01 T02350235  RH  100%=      5-min Rain = 0
KJU1 150323Z 00000KT 24/24 A3005 RMK A01 T02350235  RH  100%=      5-min Rain = 0
KJU1 150324Z 00000KT 24/24 A3005 RMK A01 T02350235  RH  100%=      5-min Rain = 0
KJU1 150325Z 02001KT 24/24 A3005 RMK A01 T02350235  RH  100%=      5-min Rain = 0
KJU1 150326Z 02002KT 24/24 A3005 RMK A01 T02350235  RH  100%=      5-min Rain = 0
KJU1 150327Z 01002KT 24/24 A3005 RMK A01 T02350235  RH  100%=      5-min Rain = 0
KJU1 150328Z 00003KT 23/24 A3005 RMK A01 T02340235  RH  100%=      5-min Rain = 0
KJU1 150329Z 36003KT 23/24 A3005 RMK A01 T02340235  RH  100%=      5-min Rain = 0
KJU1 150330Z 36002KT 24/24 A3005 RMK A01 T02350235  RH  100%=      5-min Rain = 0
KJU1 150331Z 35001KT 24/24 A3005 RMK A01 T02350235  RH  100%=      5-min Rain = 0
KJU1 150332Z 35002KT 24/24 A3005 RMK A01 T02350235  RH  100%=      5-min Rain = 0
KJU1 150333Z 34002KT 24/24 A3005 RMK A01 T02350235  RH  100%=      5-min Rain = 0
KJU1 150334Z 34001KT 24/24 A3005 RMK A01 T02350235  RH  100%=      5-min Rain = 0
KJU1 150335Z 31000KT 24/24 A3005 RMK A01 T02350236  RH  100%=      5-min Rain = 0
KJU1 150336Z 31000KT 24/24 A3005 RMK A01 T02350235  RH  100%=      5-min Rain = 0
KJU1 150337Z 31001KT 24/24 A3005 RMK A01 T02350235  RH  100%=      5-min Rain = 0
KJU1 150338Z 30000KT 24/24 A3005 RMK A01 T02350235  RH  100%=      5-min Rain = 0
KJU1 150339Z 00000KT 24/24 A3006 RMK A01 T02350235  RH  100%=      5-min Rain = 0
KJU1 150340Z 00000KT 23/24 A3006 RMK A01 T02340235  RH  100%=      5-min Rain = 0
KJU1 150341Z 01001KT 23/23 A3006 RMK A01 T02340234  RH  100%=      5-min Rain = 0
KJU1 150342Z 01001KT 23/23 A3006 RMK A01 T02340234  RH  100%=      5-min Rain = 0
KJU1 150343Z 03001KT 23/23 A3006 RMK A01 T02340234  RH  100%=      5-min Rain = 0
KJU1 150344Z 06001KT 23/23 A3006 RMK A01 T02340234  RH  100%=      5-min Rain = 0
KJU1 150345Z 12001KT 23/23 A3006 RMK A01 T02340234  RH  100%=      5-min Rain = 0
KJU1 150346Z 14002KT 23/23 A3006 RMK A01 T02340234  RH  100%=      5-min Rain = 0
KJU1 150347Z 15002KT 23/23 A3007 RMK A01 T02330234  RH  100%=      5-min Rain = 0
KJU1 150348Z 16003KT 23/23 A3007 RMK A01 T02330233  RH  100%=      5-min Rain = 0
KJU1 150349Z 17003KT 23/23 A3007 RMK A01 T02320233  RH  100%=      5-min Rain = 0
KJU1 150350Z 17003KT 23/23 A3007 RMK A01 T02320232  RH  100%=      5-min Rain = 0
KJU1 150351Z 17002KT 23/23 A3007 RMK A01 T02320232  RH  100%=      5-min Rain = 0
KJU1 150352Z 17002KT 23/23 A3007 RMK A01 T02320232  RH  100%=      5-min Rain = 0
KJU1 150353Z 17002KT 23/23 A3007 RMK A01 T02320232  RH  100%=      5-min Rain = 0
KJU1 150354Z 17002KT 23/23 A3007 RMK A01 T02320232  RH  100%=      5-min Rain = 0
KJU1 150355Z 18002KT 23/23 A3007 RMK A01 T02320232  RH  100%=      5-min Rain = 0
KJU1 150356Z 17002KT 23/23 A3007 RMK A01 T02320232  RH  100%=      5-min Rain = 0
KJU1 150357Z 16002KT 23/23 A3007 RMK A01 T02310232  RH  100%=      5-min Rain = 0
KJU1 150358Z 16001KT 23/23 A3007 RMK A01 T02320232  RH  100%=      5-min Rain = 0
KJU1 150359Z 15001KT 23/23 A3007 RMK A01 T02320232  RH  100%=      5-min Rain = 0
KJU1 150400Z 15001KT 23/23 A3007 RMK A01 T02310231  RH  100%=      5-min Rain = 0
KJU1 150401Z 15001KT 23/23 A3007 RMK A01 T02310231  RH  100%=      5-min Rain = 0
KJU1 150402Z 15000KT 23/23 A3007 RMK A01 T02310231  RH  100%=      5-min Rain = 0
KJU1 150403Z 00000KT 23/23 A3007 RMK A01 T02310231  RH  100%=      5-min Rain = 0
KJU1 150404Z 00000KT 23/23 A3007 RMK A01 T02310231  RH  100%=      5-min Rain = 0
KJU1 150405Z 00000KT 23/23 A3007 RMK A01 T02310231  RH  100%=      5-min Rain = 0
KJU1 150406Z 00000KT 23/23 A3007 RMK A01 T02310231  RH  100%=      5-min Rain = 0
KJU1 150407Z 00000KT 23/23 A3007 RMK A01 T02310231  RH  100%=      5-min Rain = 0
KJU1 150408Z 00000KT 23/23 A3007 RMK A01 T02310231  RH  100%=      5-min Rain = 0
KJU1 150409Z 08001KT 23/23 A3007 RMK A01 T02310231  RH  100%=      5-min Rain = 0
KJU1 150410Z 08001KT 23/23 A3007 RMK A01 T02310231  RH  100%=      5-min Rain = 0
KJU1 150411Z 07001KT 23/23 A3007 RMK A01 T02310231  RH  100%=      5-min Rain = 0
KJU1 150412Z 07001KT 23/23 A3007 RMK A01 T02310231  RH  100%=      5-min Rain = 0
KJU1 150413Z 07000KT 23/23 A3008 RMK A01 T02310231  RH  100%=      5-min Rain = 0
KJU1 150414Z 05000KT 23/23 A3008 RMK A01 T02310231  RH  100%=      5-min Rain = 0
KJU1 150415Z 04001KT 23/23 A3008 RMK A01 T02310231  RH  100%=      5-min Rain = 0
KJU1 150416Z 04002KT 23/23 A3008 RMK A01 T02310231  RH  100%=      5-min Rain = 0
KJU1 150417Z 04003KT 23/23 A3008 RMK A01 T02310231  RH  100%=      5-min Rain = 0
KJU1 150418Z 04003KT 23/23 A3008 RMK A01 T02310231  RH  100%=      5-min Rain = 0
KJU1 150419Z 04003KT 23/23 A3008 RMK A01 T02310231  RH  100%=      5-min Rain = 0
KJU1 150420Z 04002KT 23/23 A3008 RMK A01 T02310231  RH  100%=      5-min Rain = 0
KJU1 150421Z 05002KT 23/23 A3008 RMK A01 T02320232  RH  100%=      5-min Rain = 0
KJU1 150422Z 07002KT 23/23 A3008 RMK A01 T02320232  RH  100%=      5-min Rain = 0
KJU1 150423Z 08002KT 23/23 A3008 RMK A01 T02320232  RH  100%=      5-min Rain = 0
KJU1 150424Z 08002KT 23/23 A3009 RMK A01 T02320232  RH  100%=      5-min Rain = 0
KJU1 150425Z 08003KT 23/23 A3009 RMK A01 T02320232  RH  100%=      5-min Rain = 0
KJU1 150426Z 09003KT 23/23 A3009 RMK A01 T02310231  RH  100%=      5-min Rain = 0
KJU1 150427Z 09003KT 23/23 A3009 RMK A01 T02310231  RH  100%=      5-min Rain = 0
KJU1 150428Z 09004KT 23/23 A3009 RMK A01 T02310231  RH  100%=      5-min Rain = 0
KJU1 150429Z 09004KT 23/23 A3009 RMK A01 T02310231  RH  100%=      5-min Rain = 0
KJU1 150430Z 10003KT 23/23 A3009 RMK A01 T02310231  RH  100%=      5-min Rain = 0
KJU1 150431Z 08002KT 23/23 A3009 RMK A01 T02310231  RH  100%=      5-min Rain = 0
KJU1 150432Z 10001KT 23/23 A3009 RMK A01 T02310231  RH  100%=      5-min Rain = 0
KJU1 150433Z 11000KT 23/23 A3009 RMK A01 T02310231  RH  100%=      5-min Rain = 0
KJU1 150434Z 00000KT 23/23 A3009 RMK A01 T02310231  RH  100%=      5-min Rain = 0
KJU1 150435Z 00000KT 23/23 A3009 RMK A01 T02310231  RH  100%=      5-min Rain = 0
KJU1 150436Z 00000KT 23/23 A3009 RMK A01 T02310231  RH  100%=      5-min Rain = 0
KJU1 150437Z 02000KT 23/23 A3009 RMK A01 T02310231  RH  100%=      5-min Rain = 0
KJU1 150438Z 03001KT 23/23 A3009 RMK A01 T02300230  RH  100%=      5-min Rain = 0
KJU1 150439Z 03002KT 23/23 A3009 RMK A01 T02300230  RH  100%=      5-min Rain = 0
KJU1 150440Z 02002KT 23/23 A3009 RMK A01 T02300230  RH  100%=      5-min Rain = 0
KJU1 150441Z 02003KT 23/23 A3009 RMK A01 T02300230  RH  100%=      5-min Rain = 0
KJU1 150442Z 35003KT 23/23 A3009 RMK A01 T02300230  RH  100%=      5-min Rain = 0
KJU1 150443Z 00003KT 23/23 A3009 RMK A01 T02310231  RH  100%=      5-min Rain = 0
KJU1 150444Z 02002KT 23/23 A3009 RMK A01 T02320231  RH  100%=      5-min Rain = 0
KJU1 150445Z 01002KT 23/23 A3009 RMK A01 T02310231  RH  100%=      5-min Rain = 0
KJU1 150446Z 35002KT 23/23 A3009 RMK A01 T02310231  RH  100%=      5-min Rain = 0
KJU1 150447Z 35002KT 23/23 A3009 RMK A01 T02320231  RH  100%=      5-min Rain = 0
KJU1 150448Z 35001KT 23/23 A3009 RMK A01 T02320231  RH  100%=      5-min Rain = 0
KJU1 150449Z 31001KT 23/23 A3009 RMK A01 T02320231  RH  100%=      5-min Rain = 0
KJU1 150450Z 32001KT 23/23 A3009 RMK A01 T02320231  RH  100%=      5-min Rain = 0
KJU1 150451Z 33001KT 23/23 A3009 RMK A01 T02320231  RH  100%=      5-min Rain = 0
KJU1 150452Z 34001KT 23/23 A3009 RMK A01 T02310231  RH  100%=      5-min Rain = 0
KJU1 150453Z 33001KT 23/23 A3009 RMK A01 T02320231  RH  100%=      5-min Rain = 0
KJU1 150454Z 32000KT 23/23 A3009 RMK A01 T02320231  RH  100%=      5-min Rain = 0
KJU1 150455Z 33001KT 23/23 A3009 RMK A01 T02320231  RH  100%=      5-min Rain = 0
KJU1 150456Z 35001KT 23/23 A3009 RMK A01 T02320231  RH  100%=      5-min Rain = 0
KJU1 150457Z 00000KT 23/23 A3009 RMK A01 T02320231  RH  100%=      5-min Rain = 0
KJU1 150458Z 07000KT 23/23 A3009 RMK A01 T02320231  RH  100%=      5-min Rain = 0
KJU1 150459Z 07000KT 23/23 A3009 RMK A01 T02320231  RH  100%=      5-min Rain = 0

Page generated in 0.1298 seconds.